<?xml version="1.0" encoding="UTF-8" standalone="no" ?>
<gpx xmlns="http://www.topografix.com/GPX/1/1" xmlns:xsi="http://www.w3.org/2001/XMLSchema-instance" xsi:schemaLocation="http://www.topografix.com/GPX/1/1 http://www.topografix.com/GPX/1/1/gpx.xsd" version="1.1" creator="VisuGPX - https://www.visugpx.com">
  <metadata>
    <name>48km 330d+</name>
  </metadata>
  <trk>
    <name><![CDATA[48km 330d+_1]]></name>
    <trkseg>
      <trkpt lat="38.59794" lon="-9.14712">
        <ele>41.4</ele>
        <time>2019-08-23T22:58:04.760Z</time>
      </trkpt>
      <trkpt lat="38.59776" lon="-9.14795">
        <ele>39.1</ele>
        <time>2019-08-23T22:58:15.034Z</time>
      </trkpt>
      <trkpt lat="38.59726" lon="-9.14893">
        <ele>39.1</ele>
        <time>2019-08-23T22:58:25.315Z</time>
      </trkpt>
      <trkpt lat="38.59571" lon="-9.14666">
        <ele>43.7</ele>
        <time>2019-08-23T22:58:35.601Z</time>
      </trkpt>
      <trkpt lat="38.59516" lon="-9.14502">
        <ele>45.6</ele>
        <time>2019-08-23T22:58:45.888Z</time>
      </trkpt>
      <trkpt lat="38.59489" lon="-9.14508">
        <ele>46.2</ele>
        <time>2019-08-23T22:58:56.190Z</time>
      </trkpt>
      <trkpt lat="38.59454" lon="-9.14437">
        <ele>47.4</ele>
        <time>2019-08-23T22:59:06.499Z</time>
      </trkpt>
      <trkpt lat="38.59378" lon="-9.14588">
        <ele>47</ele>
        <time>2019-08-23T22:59:16.833Z</time>
      </trkpt>
      <trkpt lat="38.59302" lon="-9.14601">
        <ele>48.5</ele>
        <time>2019-08-23T22:59:27.255Z</time>
      </trkpt>
      <trkpt lat="38.59283" lon="-9.14647">
        <ele>48.2</ele>
        <time>2019-08-23T22:59:37.695Z</time>
      </trkpt>
      <trkpt lat="38.59227" lon="-9.14575">
        <ele>50.32975387573</ele>
        <time>2019-08-23T22:59:48.136Z</time>
      </trkpt>
      <trkpt lat="38.59191" lon="-9.14628">
        <ele>50.80290603638</ele>
        <time>2019-08-23T22:59:58.589Z</time>
      </trkpt>
      <trkpt lat="38.58977" lon="-9.14969">
        <ele>53.28673553467</ele>
        <time>2019-08-23T23:00:09.115Z</time>
      </trkpt>
      <trkpt lat="38.58953" lon="-9.15015">
        <ele>54.20877456665</ele>
        <time>2019-08-23T23:00:19.650Z</time>
      </trkpt>
      <trkpt lat="38.58991" lon="-9.15079">
        <ele>49.19018936157</ele>
        <time>2019-08-23T23:00:30.198Z</time>
      </trkpt>
      <trkpt lat="38.58969" lon="-9.15083">
        <ele>50.79792022705</ele>
        <time>2019-08-23T23:00:40.751Z</time>
      </trkpt>
      <trkpt lat="38.58918" lon="-9.151">
        <ele>52.38877868652</ele>
        <time>2019-08-23T23:00:51.315Z</time>
      </trkpt>
      <trkpt lat="38.58909" lon="-9.15102">
        <ele>52.31679153442</ele>
        <time>2019-08-23T23:01:01.881Z</time>
      </trkpt>
      <trkpt lat="38.58888" lon="-9.15116">
        <ele>51.56337356567</ele>
        <time>2019-08-23T23:01:12.452Z</time>
      </trkpt>
      <trkpt lat="38.58884" lon="-9.15123">
        <ele>50.97547149658</ele>
        <time>2019-08-23T23:01:23.025Z</time>
      </trkpt>
      <trkpt lat="38.58879" lon="-9.15128">
        <ele>50.55554199219</ele>
        <time>2019-08-23T23:01:33.599Z</time>
      </trkpt>
      <trkpt lat="38.58873" lon="-9.1513">
        <ele>50.38756942749</ele>
        <time>2019-08-23T23:01:44.175Z</time>
      </trkpt>
      <trkpt lat="38.58862" lon="-9.15128">
        <ele>50.55554199219</ele>
        <time>2019-08-23T23:01:54.753Z</time>
      </trkpt>
      <trkpt lat="38.58856" lon="-9.1513">
        <ele>50.38756942749</ele>
        <time>2019-08-23T23:02:05.332Z</time>
      </trkpt>
      <trkpt lat="38.58844" lon="-9.15136">
        <ele>49.97342300415</ele>
        <time>2019-08-23T23:02:15.914Z</time>
      </trkpt>
      <trkpt lat="38.58832" lon="-9.15146">
        <ele>49.27753829956</ele>
        <time>2019-08-23T23:02:26.499Z</time>
      </trkpt>
      <trkpt lat="38.58812" lon="-9.15156">
        <ele>48.67763900757</ele>
        <time>2019-08-23T23:02:37.089Z</time>
      </trkpt>
      <trkpt lat="38.58787" lon="-9.15161">
        <ele>48.38629150391</ele>
        <time>2019-08-23T23:02:47.684Z</time>
      </trkpt>
      <trkpt lat="38.58762" lon="-9.15162">
        <ele>48.31430053711</ele>
        <time>2019-08-23T23:02:58.284Z</time>
      </trkpt>
      <trkpt lat="38.58752" lon="-9.15159">
        <ele>48.53026580811</ele>
        <time>2019-08-23T23:03:08.887Z</time>
      </trkpt>
      <trkpt lat="38.58681" lon="-9.15119">
        <ele>47.89414596558</ele>
        <time>2019-08-23T23:03:19.506Z</time>
      </trkpt>
      <trkpt lat="38.5864" lon="-9.15103">
        <ele>48.21143341064</ele>
        <time>2019-08-23T23:03:30.134Z</time>
      </trkpt>
      <trkpt lat="38.58579" lon="-9.15095">
        <ele>49.32437896729</ele>
        <time>2019-08-23T23:03:40.775Z</time>
      </trkpt>
      <trkpt lat="38.58456" lon="-9.15413">
        <ele>51.88079071045</ele>
        <time>2019-08-23T23:03:51.476Z</time>
      </trkpt>
      <trkpt lat="38.58412" lon="-9.15522">
        <ele>53.47937011719</ele>
        <time>2019-08-23T23:04:02.197Z</time>
      </trkpt>
      <trkpt lat="38.5833" lon="-9.15732">
        <ele>57.74325942993</ele>
        <time>2019-08-23T23:04:12.957Z</time>
      </trkpt>
      <trkpt lat="38.58293" lon="-9.15738">
        <ele>57.65040206909</ele>
        <time>2019-08-23T23:04:23.725Z</time>
      </trkpt>
      <trkpt lat="38.58292" lon="-9.15779">
        <ele>57.28733444214</ele>
        <time>2019-08-23T23:04:34.500Z</time>
      </trkpt>
      <trkpt lat="38.58235" lon="-9.15764">
        <ele>57.72239303589</ele>
        <time>2019-08-23T23:04:45.288Z</time>
      </trkpt>
      <trkpt lat="38.58217" lon="-9.15834">
        <ele>56.38748550415</ele>
        <time>2019-08-23T23:04:56.088Z</time>
      </trkpt>
      <trkpt lat="38.58214" lon="-9.15841">
        <ele>56.35689163208</ele>
        <time>2019-08-23T21:20:27.000Z</time>
      </trkpt>
      <trkpt lat="38.58215" lon="-9.15842">
        <ele>56.36349105835</ele>
        <time>2019-08-23T21:20:27.000Z</time>
      </trkpt>
      <trkpt lat="38.58156" lon="-9.16065">
        <ele>57.2413482666</ele>
        <time>2019-08-23T21:20:27.040Z</time>
      </trkpt>
      <trkpt lat="38.58334" lon="-9.16179">
        <ele>60.41749572754</ele>
        <time>2019-08-23T21:20:27.122Z</time>
      </trkpt>
      <trkpt lat="38.58505" lon="-9.16283">
        <ele>61.03503417969</ele>
        <time>2019-08-23T21:20:27.245Z</time>
      </trkpt>
      <trkpt lat="38.58518" lon="-9.16292">
        <ele>61.34404754639</ele>
        <time>2019-08-23T21:20:27.371Z</time>
      </trkpt>
      <trkpt lat="38.58522" lon="-9.16293">
        <ele>61.78992843628</ele>
        <time>2019-08-23T21:20:27.498Z</time>
      </trkpt>
      <trkpt lat="38.58614" lon="-9.16348">
        <ele>66.02158355713</ele>
        <time>2019-08-23T21:20:27.646Z</time>
      </trkpt>
      <trkpt lat="38.58614" lon="-9.16347">
        <ele>66.06958007812</ele>
        <time>2019-08-23T21:20:27.794Z</time>
      </trkpt>
      <trkpt lat="38.58611" lon="-9.16346">
        <ele>66.26154327393</ele>
        <time>2019-08-23T21:20:27.943Z</time>
      </trkpt>
      <trkpt lat="38.58386" lon="-9.16909">
        <ele>64.24544525146</ele>
        <time>2019-08-23T21:20:28.198Z</time>
      </trkpt>
      <trkpt lat="38.58358" lon="-9.16972">
        <ele>64.30880737305</ele>
        <time>2019-08-23T21:20:28.465Z</time>
      </trkpt>
      <trkpt lat="38.58345" lon="-9.17011">
        <ele>65.16544342041</ele>
        <time>2019-08-23T21:20:28.739Z</time>
      </trkpt>
      <trkpt lat="38.58136" lon="-9.17542">
        <ele>74.66094970703</ele>
        <time>2019-08-23T21:20:29.112Z</time>
      </trkpt>
      <trkpt lat="38.58039" lon="-9.17777">
        <ele>70.01094818115</ele>
        <time>2019-08-23T21:20:29.530Z</time>
      </trkpt>
      <trkpt lat="38.57696" lon="-9.18642">
        <ele>69</ele>
        <time>2019-08-23T21:20:30.110Z</time>
      </trkpt>
      <trkpt lat="38.57695" lon="-9.18643">
        <ele>69</ele>
        <time>2019-08-23T21:20:30.690Z</time>
      </trkpt>
      <trkpt lat="38.57772" lon="-9.18683">
        <ele>68.23751068115</ele>
        <time>2019-08-23T21:20:31.288Z</time>
      </trkpt>
      <trkpt lat="38.57719" lon="-9.18818">
        <ele>72.67844390869</ele>
        <time>2019-08-23T21:20:31.911Z</time>
      </trkpt>
      <trkpt lat="38.57712" lon="-9.18834">
        <ele>73.69827270508</ele>
        <time>2019-08-23T21:20:32.537Z</time>
      </trkpt>
      <trkpt lat="38.57695" lon="-9.1886">
        <ele>75.45054626465</ele>
        <time>2019-08-23T21:20:33.169Z</time>
      </trkpt>
      <trkpt lat="38.57669" lon="-9.18889">
        <ele>76.33083343506</ele>
        <time>2019-08-23T21:20:33.809Z</time>
      </trkpt>
      <trkpt lat="38.57576" lon="-9.18971">
        <ele>75.76420593262</ele>
        <time>2019-08-23T21:20:34.473Z</time>
      </trkpt>
      <trkpt lat="38.57563" lon="-9.18987">
        <ele>75.06832122803</ele>
        <time>2019-08-23T21:20:35.140Z</time>
      </trkpt>
      <trkpt lat="38.57549" lon="-9.19007">
        <ele>74.25245666504</ele>
        <time>2019-08-23T21:20:35.812Z</time>
      </trkpt>
      <trkpt lat="38.57538" lon="-9.1903">
        <ele>73.27875518799</ele>
        <time>2019-08-23T21:20:36.488Z</time>
      </trkpt>
      <trkpt lat="38.57529" lon="-9.19056">
        <ele>70.25525665283</ele>
        <time>2019-08-23T21:20:37.169Z</time>
      </trkpt>
      <trkpt lat="38.57489" lon="-9.19261">
        <ele>58.96479797363</ele>
        <time>2019-08-23T21:20:37.886Z</time>
      </trkpt>
      <trkpt lat="38.57489" lon="-9.19262">
        <ele>58.92880630493</ele>
        <time>2019-08-23T21:20:38.603Z</time>
      </trkpt>
      <trkpt lat="38.57488" lon="-9.19265">
        <ele>58.83282089233</ele>
        <time>2019-08-23T21:20:39.320Z</time>
      </trkpt>
      <trkpt lat="38.57502" lon="-9.19275">
        <ele>58.30490875244</ele>
        <time>2019-08-23T21:20:40.041Z</time>
      </trkpt>
      <trkpt lat="38.57619" lon="-9.19337">
        <ele>60.94560623169</ele>
        <time>2019-08-23T21:20:40.789Z</time>
      </trkpt>
      <trkpt lat="38.57639" lon="-9.19347">
        <ele>62.34257888794</ele>
        <time>2019-08-23T21:20:41.541Z</time>
      </trkpt>
      <trkpt lat="38.57583" lon="-9.19364">
        <ele>57.85409164429</ele>
        <time>2019-08-23T21:20:42.306Z</time>
      </trkpt>
      <trkpt lat="38.57563" lon="-9.19376">
        <ele>55.59846496582</ele>
        <time>2019-08-23T21:20:43.075Z</time>
      </trkpt>
      <trkpt lat="38.57519" lon="-9.19412">
        <ele>49.5994682312</ele>
        <time>2019-08-23T21:20:43.855Z</time>
      </trkpt>
      <trkpt lat="38.57492" lon="-9.1942">
        <ele>44.9513130188</ele>
        <time>2019-08-23T21:20:44.641Z</time>
      </trkpt>
      <trkpt lat="38.57447" lon="-9.19416">
        <ele>40.67910003662</ele>
        <time>2019-08-23T21:20:45.437Z</time>
      </trkpt>
      <trkpt lat="38.57366" lon="-9.19397">
        <ele>40.53182601929</ele>
        <time>2019-08-23T21:20:46.251Z</time>
      </trkpt>
      <trkpt lat="38.57353" lon="-9.19396">
        <ele>40.67580413818</ele>
        <time>2019-08-23T21:20:47.067Z</time>
      </trkpt>
      <trkpt lat="38.57337" lon="-9.194">
        <ele>39.11328125</ele>
        <time>2019-08-23T21:20:47.887Z</time>
      </trkpt>
      <trkpt lat="38.57318" lon="-9.19411">
        <ele>35.35790634155</ele>
        <time>2019-08-23T21:20:48.711Z</time>
      </trkpt>
      <trkpt lat="38.57255" lon="-9.19468">
        <ele>20.35874938965</ele>
        <time>2019-08-23T21:20:49.552Z</time>
      </trkpt>
      <trkpt lat="38.57255" lon="-9.19469">
        <ele>20.2147731781</ele>
        <time>2019-08-23T21:20:50.393Z</time>
      </trkpt>
      <trkpt lat="38.57249" lon="-9.19474">
        <ele>19.35091781616</ele>
        <time>2019-08-23T21:20:51.235Z</time>
      </trkpt>
      <trkpt lat="38.5724" lon="-9.19486">
        <ele>17.40724182129</ele>
        <time>2019-08-23T21:20:52.080Z</time>
      </trkpt>
      <trkpt lat="38.57228" lon="-9.19507">
        <ele>14.09579372406</ele>
        <time>2019-08-23T21:20:52.930Z</time>
      </trkpt>
      <trkpt lat="38.57228" lon="-9.19511">
        <ele>13.51988887787</ele>
        <time>2019-08-23T21:20:53.780Z</time>
      </trkpt>
      <trkpt lat="38.57236" lon="-9.19524">
        <ele>11.84016895294</ele>
        <time>2019-08-23T21:20:54.633Z</time>
      </trkpt>
      <trkpt lat="38.57265" lon="-9.19535">
        <ele>11.78999519348</ele>
        <time>2019-08-23T21:20:55.492Z</time>
      </trkpt>
      <trkpt lat="38.57366" lon="-9.19562">
        <ele>10.66948413849</ele>
        <time>2019-08-23T21:20:56.373Z</time>
      </trkpt>
      <trkpt lat="38.5741" lon="-9.19571">
        <ele>12.32940006256</ele>
        <time>2019-08-23T21:20:57.264Z</time>
      </trkpt>
      <trkpt lat="38.57419" lon="-9.19575">
        <ele>12.25741195679</ele>
        <time>2019-08-23T21:20:58.157Z</time>
      </trkpt>
      <trkpt lat="38.57433" lon="-9.19582">
        <ele>12.08944034576</ele>
        <time>2019-08-23T21:20:59.053Z</time>
      </trkpt>
      <trkpt lat="38.57552" lon="-9.19667">
        <ele>14.09497261047</ele>
        <time>2019-08-23T21:20:59.978Z</time>
      </trkpt>
      <trkpt lat="38.57648" lon="-9.19726">
        <ele>12.4299621582</ele>
        <time>2019-08-23T21:21:00.926Z</time>
      </trkpt>
      <trkpt lat="38.5773" lon="-9.19772">
        <ele>11.76333808899</ele>
        <time>2019-08-23T21:21:01.893Z</time>
      </trkpt>
      <trkpt lat="38.57917" lon="-9.19874">
        <ele>10</ele>
        <time>2019-08-23T21:21:02.904Z</time>
      </trkpt>
      <trkpt lat="38.58227" lon="-9.20025">
        <ele>10</ele>
        <time>2019-08-23T21:21:03.985Z</time>
      </trkpt>
      <trkpt lat="38.58252" lon="-9.19922">
        <ele>14.40376663208</ele>
        <time>2019-08-23T21:21:05.084Z</time>
      </trkpt>
      <trkpt lat="38.58252" lon="-9.19923">
        <ele>14.21179771423</ele>
        <time>2019-08-23T21:21:06.184Z</time>
      </trkpt>
      <trkpt lat="38.58258" lon="-9.19899">
        <ele>18.81903076172</ele>
        <time>2019-08-23T21:21:07.288Z</time>
      </trkpt>
      <trkpt lat="38.58263" lon="-9.19889">
        <ele>20.73871040344</ele>
        <time>2019-08-23T21:21:08.394Z</time>
      </trkpt>
      <trkpt lat="38.58268" lon="-9.19883">
        <ele>21.89051818848</ele>
        <time>2019-08-23T21:21:09.501Z</time>
      </trkpt>
      <trkpt lat="38.5828" lon="-9.19881">
        <ele>23.56469345093</ele>
        <time>2019-08-23T21:21:10.611Z</time>
      </trkpt>
      <trkpt lat="38.58303" lon="-9.19889">
        <ele>24.51253509521</ele>
        <time>2019-08-23T21:21:11.726Z</time>
      </trkpt>
      <trkpt lat="38.58311" lon="-9.19895">
        <ele>24.22458267212</ele>
        <time>2019-08-23T21:21:12.843Z</time>
      </trkpt>
      <trkpt lat="38.58344" lon="-9.19908">
        <ele>21.54821014404</ele>
        <time>2019-08-23T21:21:13.967Z</time>
      </trkpt>
      <trkpt lat="38.58362" lon="-9.19902">
        <ele>24.00066947937</ele>
        <time>2019-08-23T21:21:15.095Z</time>
      </trkpt>
      <trkpt lat="38.58376" lon="-9.19906">
        <ele>23.68872070312</ele>
        <time>2019-08-23T21:21:16.226Z</time>
      </trkpt>
      <trkpt lat="38.58402" lon="-9.19924">
        <ele>20.42120170593</ele>
        <time>2019-08-23T21:21:17.364Z</time>
      </trkpt>
      <trkpt lat="38.5841" lon="-9.19931">
        <ele>19.06542778015</ele>
        <time>2019-08-23T21:21:18.504Z</time>
      </trkpt>
      <trkpt lat="38.58452" lon="-9.19943">
        <ele>18.87058448792</ele>
        <time>2019-08-23T21:21:19.653Z</time>
      </trkpt>
      <trkpt lat="38.58469" lon="-9.19956">
        <ele>18.80240821838</ele>
        <time>2019-08-23T21:21:20.806Z</time>
      </trkpt>
      <trkpt lat="38.5854" lon="-9.19978">
        <ele>19.94623565674</ele>
        <time>2019-08-23T21:21:21.975Z</time>
      </trkpt>
      <trkpt lat="38.58549" lon="-9.19977">
        <ele>20.96606636047</ele>
        <time>2019-08-23T21:21:23.146Z</time>
      </trkpt>
      <trkpt lat="38.58573" lon="-9.19971">
        <ele>24.20552635193</ele>
        <time>2019-08-23T21:21:24.322Z</time>
      </trkpt>
      <trkpt lat="38.58598" lon="-9.1997">
        <ele>25.46413612366</ele>
        <time>2019-08-23T21:21:25.503Z</time>
      </trkpt>
      <trkpt lat="38.58617" lon="-9.19978">
        <ele>25.16705513</ele>
        <time>2019-08-23T21:21:26.688Z</time>
      </trkpt>
      <trkpt lat="38.58696" lon="-9.1999">
        <ele>27.72554016113</ele>
        <time>2019-08-23T21:21:27.890Z</time>
      </trkpt>
      <trkpt lat="38.5872" lon="-9.19994">
        <ele>27.87310409546</ele>
        <time>2019-08-23T21:21:29.097Z</time>
      </trkpt>
      <trkpt lat="38.58735" lon="-9.19999">
        <ele>26.43334388733</ele>
        <time>2019-08-23T21:21:30.308Z</time>
      </trkpt>
      <trkpt lat="38.5875" lon="-9.20006">
        <ele>24.41768074036</ele>
        <time>2019-08-23T21:21:31.522Z</time>
      </trkpt>
      <trkpt lat="38.58787" lon="-9.20018">
        <ele>22.36135101318</ele>
        <time>2019-08-23T21:21:32.744Z</time>
      </trkpt>
      <trkpt lat="38.5881" lon="-9.20023">
        <ele>21.78544616699</ele>
        <time>2019-08-23T21:21:33.971Z</time>
      </trkpt>
      <trkpt lat="38.58833" lon="-9.20032">
        <ele>20.75665855408</ele>
        <time>2019-08-23T21:21:35.203Z</time>
      </trkpt>
      <trkpt lat="38.5887" lon="-9.20039">
        <ele>22.2699546814</ele>
        <time>2019-08-23T21:21:36.443Z</time>
      </trkpt>
      <trkpt lat="38.58934" lon="-9.20065">
        <ele>22.37292480469</ele>
        <time>2019-08-23T21:21:37.698Z</time>
      </trkpt>
      <trkpt lat="38.58956" lon="-9.20064">
        <ele>24.35084724426</ele>
        <time>2019-08-23T21:21:38.957Z</time>
      </trkpt>
      <trkpt lat="38.59012" lon="-9.20076">
        <ele>24.90101242065</ele>
        <time>2019-08-23T21:21:40.229Z</time>
      </trkpt>
      <trkpt lat="38.59051" lon="-9.20093">
        <ele>23.3237323761</ele>
        <time>2019-08-23T21:21:41.509Z</time>
      </trkpt>
      <trkpt lat="38.59063" lon="-9.20096">
        <ele>22.92779922485</ele>
        <time>2019-08-23T21:21:42.792Z</time>
      </trkpt>
      <trkpt lat="38.59095" lon="-9.20098">
        <ele>23.52769851685</ele>
        <time>2019-08-23T21:21:44.082Z</time>
      </trkpt>
      <trkpt lat="38.5912" lon="-9.20108">
        <ele>22.0205116272</ele>
        <time>2019-08-23T21:21:45.377Z</time>
      </trkpt>
      <trkpt lat="38.59154" lon="-9.20115">
        <ele>22.27617645264</ele>
        <time>2019-08-23T21:21:46.680Z</time>
      </trkpt>
      <trkpt lat="38.59162" lon="-9.20121">
        <ele>22.22818374634</ele>
        <time>2019-08-23T21:21:47.985Z</time>
      </trkpt>
      <trkpt lat="38.59218" lon="-9.20148">
        <ele>22.02177810669</ele>
        <time>2019-08-23T21:21:49.302Z</time>
      </trkpt>
      <trkpt lat="38.5924" lon="-9.20146">
        <ele>23.62420272827</ele>
        <time>2019-08-23T21:21:50.624Z</time>
      </trkpt>
      <trkpt lat="38.59282" lon="-9.2016">
        <ele>22.95231628418</ele>
        <time>2019-08-23T21:21:51.955Z</time>
      </trkpt>
      <trkpt lat="38.59303" lon="-9.20158">
        <ele>24.02013778687</ele>
        <time>2019-08-23T21:21:53.291Z</time>
      </trkpt>
      <trkpt lat="38.59346" lon="-9.20166">
        <ele>21.97806739807</ele>
        <time>2019-08-23T21:21:54.636Z</time>
      </trkpt>
      <trkpt lat="38.5936" lon="-9.20165">
        <ele>22.62126350403</ele>
        <time>2019-08-23T21:21:55.984Z</time>
      </trkpt>
      <trkpt lat="38.59372" lon="-9.20166">
        <ele>23.13717651367</ele>
        <time>2019-08-23T21:21:57.335Z</time>
      </trkpt>
      <trkpt lat="38.59402" lon="-9.20174">
        <ele>21.53826522827</ele>
        <time>2019-08-23T21:21:58.692Z</time>
      </trkpt>
      <trkpt lat="38.59483" lon="-9.20178">
        <ele>23.02829360962</ele>
        <time>2019-08-23T21:22:00.067Z</time>
      </trkpt>
      <trkpt lat="38.59509" lon="-9.20183">
        <ele>22.40439605713</ele>
        <time>2019-08-23T21:22:01.447Z</time>
      </trkpt>
      <trkpt lat="38.59527" lon="-9.20179">
        <ele>24.19521522522</ele>
        <time>2019-08-23T21:22:02.831Z</time>
      </trkpt>
      <trkpt lat="38.59549" lon="-9.20183">
        <ele>23.02520370483</ele>
        <time>2019-08-23T21:22:04.220Z</time>
      </trkpt>
      <trkpt lat="38.59592" lon="-9.20182">
        <ele>23.36114883423</ele>
        <time>2019-08-23T21:22:05.618Z</time>
      </trkpt>
      <trkpt lat="38.59605" lon="-9.20193">
        <ele>19.78789520264</ele>
        <time>2019-08-23T21:22:07.019Z</time>
      </trkpt>
      <trkpt lat="38.59619" lon="-9.20195">
        <ele>19.62539100647</ele>
        <time>2019-08-23T21:22:08.423Z</time>
      </trkpt>
      <trkpt lat="38.59638" lon="-9.2019">
        <ele>21.98353004456</ele>
        <time>2019-08-23T21:22:09.831Z</time>
      </trkpt>
      <trkpt lat="38.59651" lon="-9.20193">
        <ele>21.44361877441</ele>
        <time>2019-08-23T21:22:11.242Z</time>
      </trkpt>
      <trkpt lat="38.5969" lon="-9.20198">
        <ele>22.03676986694</ele>
        <time>2019-08-23T21:22:12.662Z</time>
      </trkpt>
      <trkpt lat="38.59721" lon="-9.20192">
        <ele>24.22759246826</ele>
        <time>2019-08-23T21:22:14.088Z</time>
      </trkpt>
      <trkpt lat="38.59776" lon="-9.20201">
        <ele>25.4501209259</ele>
        <time>2019-08-23T21:22:15.526Z</time>
      </trkpt>
      <trkpt lat="38.59804" lon="-9.20203">
        <ele>28.04168891907</ele>
        <time>2019-08-23T21:22:16.970Z</time>
      </trkpt>
      <trkpt lat="38.59824" lon="-9.20216">
        <ele>29.33747291565</ele>
        <time>2019-08-23T21:22:18.419Z</time>
      </trkpt>
      <trkpt lat="38.59865" lon="-9.20226">
        <ele>29.81564331055</ele>
        <time>2019-08-23T21:22:19.877Z</time>
      </trkpt>
      <trkpt lat="38.59881" lon="-9.20229">
        <ele>30.91945838928</ele>
        <time>2019-08-23T21:22:21.338Z</time>
      </trkpt>
      <trkpt lat="38.59907" lon="-9.20237">
        <ele>31.08554649353</ele>
        <time>2019-08-23T21:22:22.805Z</time>
      </trkpt>
      <trkpt lat="38.5993" lon="-9.20239">
        <ele>30.90557670593</ele>
        <time>2019-08-23T21:22:24.277Z</time>
      </trkpt>
      <trkpt lat="38.59938" lon="-9.20241">
        <ele>30.65377044678</ele>
        <time>2019-08-23T21:22:25.751Z</time>
      </trkpt>
      <trkpt lat="38.59953" lon="-9.20252">
        <ele>28.86606788635</ele>
        <time>2019-08-23T21:22:27.228Z</time>
      </trkpt>
      <trkpt lat="38.59966" lon="-9.20257">
        <ele>28.23407173157</ele>
        <time>2019-08-23T21:22:28.708Z</time>
      </trkpt>
      <trkpt lat="38.59979" lon="-9.20258">
        <ele>28.46203231812</ele>
        <time>2019-08-23T21:22:30.191Z</time>
      </trkpt>
      <trkpt lat="38.60003" lon="-9.20252">
        <ele>30.76564979553</ele>
        <time>2019-08-23T21:22:31.679Z</time>
      </trkpt>
      <trkpt lat="38.60028" lon="-9.20252">
        <ele>31.43376922607</ele>
        <time>2019-08-23T21:22:33.173Z</time>
      </trkpt>
      <trkpt lat="38.6006" lon="-9.20249">
        <ele>33.12923049927</ele>
        <time>2019-08-23T21:22:34.673Z</time>
      </trkpt>
      <trkpt lat="38.60086" lon="-9.20235">
        <ele>37.37652206421</ele>
        <time>2019-08-23T21:22:36.179Z</time>
      </trkpt>
      <trkpt lat="38.60102" lon="-9.20232">
        <ele>38.88996887207</ele>
        <time>2019-08-23T21:22:37.689Z</time>
      </trkpt>
      <trkpt lat="38.60133" lon="-9.20238">
        <ele>37.36622238159</ele>
        <time>2019-08-23T21:22:39.206Z</time>
      </trkpt>
      <trkpt lat="38.60158" lon="-9.20238">
        <ele>37.0662727356</ele>
        <time>2019-08-23T21:22:40.728Z</time>
      </trkpt>
      <trkpt lat="38.60172" lon="-9.20234">
        <ele>37.66617202759</ele>
        <time>2019-08-23T21:22:42.253Z</time>
      </trkpt>
      <trkpt lat="38.60213" lon="-9.20233">
        <ele>38.70819854736</ele>
        <time>2019-08-23T21:22:43.787Z</time>
      </trkpt>
      <trkpt lat="38.6024" lon="-9.20242">
        <ele>37.28163146973</ele>
        <time>2019-08-23T21:22:45.327Z</time>
      </trkpt>
      <trkpt lat="38.6026" lon="-9.20243">
        <ele>37.05366897583</ele>
        <time>2019-08-23T21:22:46.871Z</time>
      </trkpt>
      <trkpt lat="38.60284" lon="-9.20247">
        <ele>37.26593399048</ele>
        <time>2019-08-23T21:22:48.420Z</time>
      </trkpt>
      <trkpt lat="38.60319" lon="-9.20248">
        <ele>38.58397293091</ele>
        <time>2019-08-23T21:22:49.977Z</time>
      </trkpt>
      <trkpt lat="38.60348" lon="-9.20262">
        <ele>35.41650009155</ele>
        <time>2019-08-23T21:22:51.540Z</time>
      </trkpt>
      <trkpt lat="38.60355" lon="-9.20271">
        <ele>33.17930603027</ele>
        <time>2019-08-23T21:22:53.105Z</time>
      </trkpt>
      <trkpt lat="38.60385" lon="-9.2029">
        <ele>31.61640167236</ele>
        <time>2019-08-23T21:22:54.677Z</time>
      </trkpt>
      <trkpt lat="38.60404" lon="-9.20296">
        <ele>32.02433395386</ele>
        <time>2019-08-23T21:22:56.254Z</time>
      </trkpt>
      <trkpt lat="38.60466" lon="-9.20301">
        <ele>37.20176696777</ele>
        <time>2019-08-23T21:22:57.844Z</time>
      </trkpt>
      <trkpt lat="38.60473" lon="-9.20303">
        <ele>38.11361312866</ele>
        <time>2019-08-23T21:22:59.435Z</time>
      </trkpt>
      <trkpt lat="38.60489" lon="-9.20314">
        <ele>38.67509841919</ele>
        <time>2019-08-23T21:23:01.030Z</time>
      </trkpt>
      <trkpt lat="38.60504" lon="-9.20321">
        <ele>37.8952293396</ele>
        <time>2019-08-23T21:23:02.629Z</time>
      </trkpt>
      <trkpt lat="38.60531" lon="-9.20319">
        <ele>40.2965965271</ele>
        <time>2019-08-23T21:23:04.233Z</time>
      </trkpt>
      <trkpt lat="38.60574" lon="-9.20333">
        <ele>39.58040618896</ele>
        <time>2019-08-23T21:23:05.847Z</time>
      </trkpt>
      <trkpt lat="38.6059" lon="-9.20341">
        <ele>38.14064788818</ele>
        <time>2019-08-23T21:23:07.465Z</time>
      </trkpt>
      <trkpt lat="38.60608" lon="-9.20343">
        <ele>38.37789154053</ele>
        <time>2019-08-23T21:23:09.086Z</time>
      </trkpt>
      <trkpt lat="38.60646" lon="-9.20335">
        <ele>42.58499526978</ele>
        <time>2019-08-23T21:23:10.716Z</time>
      </trkpt>
      <trkpt lat="38.60706" lon="-9.20331">
        <ele>45.35903167725</ele>
        <time>2019-08-23T21:23:12.358Z</time>
      </trkpt>
      <trkpt lat="38.60747" lon="-9.2034">
        <ele>44.12585067749</ele>
        <time>2019-08-23T21:23:14.009Z</time>
      </trkpt>
      <trkpt lat="38.60756" lon="-9.20339">
        <ele>44.50978851318</ele>
        <time>2019-08-23T21:23:15.662Z</time>
      </trkpt>
      <trkpt lat="38.60763" lon="-9.20335">
        <ele>45.34964752197</ele>
        <time>2019-08-23T21:23:17.317Z</time>
      </trkpt>
      <trkpt lat="38.60776" lon="-9.20324">
        <ele>46.78633880615</ele>
        <time>2019-08-23T21:23:18.975Z</time>
      </trkpt>
      <trkpt lat="38.60786" lon="-9.2032">
        <ele>46.73834609985</ele>
        <time>2019-08-23T21:23:20.635Z</time>
      </trkpt>
      <trkpt lat="38.60815" lon="-9.20321">
        <ele>45.18529510498</ele>
        <time>2019-08-23T21:23:22.302Z</time>
      </trkpt>
      <trkpt lat="38.60816" lon="-9.20321">
        <ele>45.23328781128</ele>
        <time>2019-08-23T21:23:23.969Z</time>
      </trkpt>
      <trkpt lat="38.60818" lon="-9.20333">
        <ele>44.75336837769</ele>
        <time>2019-08-23T21:23:25.638Z</time>
      </trkpt>
      <trkpt lat="38.60831" lon="-9.2037">
        <ele>42.70273971558</ele>
        <time>2019-08-23T21:23:27.314Z</time>
      </trkpt>
      <trkpt lat="38.60957" lon="-9.20632">
        <ele>19.84996414185</ele>
        <time>2019-08-23T21:23:29.041Z</time>
      </trkpt>
      <trkpt lat="38.60972" lon="-9.20661">
        <ele>18.62889862061</ele>
        <time>2019-08-23T21:23:30.774Z</time>
      </trkpt>
      <trkpt lat="38.60991" lon="-9.20689">
        <ele>17.18913841248</ele>
        <time>2019-08-23T21:23:32.513Z</time>
      </trkpt>
      <trkpt lat="38.61022" lon="-9.20723">
        <ele>15.73761367798</ele>
        <time>2019-08-23T21:23:34.261Z</time>
      </trkpt>
      <trkpt lat="38.61046" lon="-9.20741">
        <ele>14.80176925659</ele>
        <time>2019-08-23T21:23:36.015Z</time>
      </trkpt>
      <trkpt lat="38.61748" lon="-9.21229">
        <ele>8</ele>
        <time>2019-08-23T21:23:37.939Z</time>
      </trkpt>
      <trkpt lat="38.62373" lon="-9.21584">
        <ele>9.83588504791</ele>
        <time>2019-08-23T21:23:40.009Z</time>
      </trkpt>
      <trkpt lat="38.62443" lon="-9.21625">
        <ele>10.72689437866</ele>
        <time>2019-08-23T21:23:42.096Z</time>
      </trkpt>
      <trkpt lat="38.62469" lon="-9.21642">
        <ele>9.79104995728</ele>
        <time>2019-08-23T21:23:44.189Z</time>
      </trkpt>
      <trkpt lat="38.62496" lon="-9.21664">
        <ele>9.52363300323</ele>
        <time>2019-08-23T21:23:46.289Z</time>
      </trkpt>
      <trkpt lat="38.62529" lon="-9.21696">
        <ele>9.74505615234</ele>
        <time>2019-08-23T21:23:48.398Z</time>
      </trkpt>
      <trkpt lat="38.63159" lon="-9.2236">
        <ele>5.92766809464</ele>
        <time>2019-08-23T21:23:50.681Z</time>
      </trkpt>
      <trkpt lat="38.63175" lon="-9.22379">
        <ele>5.7187256813</ele>
        <time>2019-08-23T21:23:52.969Z</time>
      </trkpt>
      <trkpt lat="38.63225" lon="-9.2243">
        <ele>4.36850118637</ele>
        <time>2019-08-23T21:23:55.270Z</time>
      </trkpt>
      <trkpt lat="38.63324" lon="-9.22539">
        <ele>4.12353134155</ele>
        <time>2019-08-23T21:23:57.599Z</time>
      </trkpt>
      <trkpt lat="38.63449" lon="-9.22664">
        <ele>4.62328147888</ele>
        <time>2019-08-23T21:23:59.962Z</time>
      </trkpt>
      <trkpt lat="38.63575" lon="-9.22798">
        <ele>5</ele>
        <time>2019-08-23T21:24:02.360Z</time>
      </trkpt>
      <trkpt lat="38.63447" lon="-9.23008">
        <ele>6.38880872726</ele>
        <time>2019-08-23T21:24:04.802Z</time>
      </trkpt>
      <trkpt lat="38.63441" lon="-9.23013">
        <ele>6.49679040909</ele>
        <time>2019-08-23T21:24:07.246Z</time>
      </trkpt>
      <trkpt lat="38.63417" lon="-9.23019">
        <ele>6.87062740326</ele>
        <time>2019-08-23T21:24:09.695Z</time>
      </trkpt>
      <trkpt lat="38.63414" lon="-9.23023">
        <ele>7.05059719086</ele>
        <time>2019-08-23T21:24:12.145Z</time>
      </trkpt>
      <trkpt lat="38.63414" lon="-9.23028">
        <ele>7.23056745529</ele>
        <time>2019-08-23T21:24:14.596Z</time>
      </trkpt>
      <trkpt lat="38.63414" lon="-9.23029">
        <ele>7.25635480881</ele>
        <time>2019-08-23T21:24:17.047Z</time>
      </trkpt>
      <trkpt lat="38.63415" lon="-9.23038">
        <ele>7.13637495041</ele>
        <time>2019-08-23T21:24:19.500Z</time>
      </trkpt>
      <trkpt lat="38.63413" lon="-9.23047">
        <ele>7.05238866806</ele>
        <time>2019-08-23T21:24:21.954Z</time>
      </trkpt>
      <trkpt lat="38.63407" lon="-9.2305">
        <ele>7.08838272095</ele>
        <time>2019-08-23T21:24:24.410Z</time>
      </trkpt>
      <trkpt lat="38.634" lon="-9.23049">
        <ele>7.18436670303</ele>
        <time>2019-08-23T21:24:26.867Z</time>
      </trkpt>
      <trkpt lat="38.63398" lon="-9.23045">
        <ele>7.25635480881</ele>
        <time>2019-08-23T21:24:29.325Z</time>
      </trkpt>
      <trkpt lat="38.63396" lon="-9.2304">
        <ele>7.34034061432</ele>
        <time>2019-08-23T21:24:31.784Z</time>
      </trkpt>
      <trkpt lat="38.63397" lon="-9.23032">
        <ele>7.42432689667</ele>
        <time>2019-08-23T21:24:34.244Z</time>
      </trkpt>
      <trkpt lat="38.63399" lon="-9.23029">
        <ele>7.43632459641</ele>
        <time>2019-08-23T21:24:36.705Z</time>
      </trkpt>
      <trkpt lat="38.63406" lon="-9.23025">
        <ele>7.21856927872</ele>
        <time>2019-08-23T21:24:39.167Z</time>
      </trkpt>
      <trkpt lat="38.63411" lon="-9.23027">
        <ele>7.23056745529</ele>
        <time>2019-08-23T21:24:41.631Z</time>
      </trkpt>
      <trkpt lat="38.63418" lon="-9.23034">
        <ele>7.14837265015</ele>
        <time>2019-08-23T21:24:44.096Z</time>
      </trkpt>
      <trkpt lat="38.63433" lon="-9.23034">
        <ele>7</ele>
        <time>2019-08-23T21:24:46.565Z</time>
      </trkpt>
      <trkpt lat="38.63443" lon="-9.23037">
        <ele>6.91096448898</ele>
        <time>2019-08-23T21:24:49.036Z</time>
      </trkpt>
      <trkpt lat="38.63542" lon="-9.23139">
        <ele>6.67766809464</ele>
        <time>2019-08-23T21:24:51.534Z</time>
      </trkpt>
      <trkpt lat="38.63773" lon="-9.23331">
        <ele>8.87784290314</ele>
        <time>2019-08-23T21:24:54.091Z</time>
      </trkpt>
      <trkpt lat="38.63779" lon="-9.2334">
        <ele>9.20178890228</ele>
        <time>2019-08-23T21:24:56.650Z</time>
      </trkpt>
      <trkpt lat="38.63785" lon="-9.23343">
        <ele>9.30977153778</ele>
        <time>2019-08-23T21:24:59.210Z</time>
      </trkpt>
      <trkpt lat="38.63792" lon="-9.23343">
        <ele>9.40229415894</ele>
        <time>2019-08-23T21:25:01.772Z</time>
      </trkpt>
      <trkpt lat="38.63797" lon="-9.23348">
        <ele>9.822224617</ele>
        <time>2019-08-23T21:25:04.335Z</time>
      </trkpt>
      <trkpt lat="38.638" lon="-9.23357">
        <ele>10.43412208557</ele>
        <time>2019-08-23T21:25:06.900Z</time>
      </trkpt>
      <trkpt lat="38.63807" lon="-9.23366">
        <ele>10.91261577606</ele>
        <time>2019-08-23T21:25:09.467Z</time>
      </trkpt>
      <trkpt lat="38.63931" lon="-9.23489">
        <ele>11.92614936829</ele>
        <time>2019-08-23T21:25:12.067Z</time>
      </trkpt>
      <trkpt lat="38.64081" lon="-9.23652">
        <ele>9.33660793304</ele>
        <time>2019-08-23T21:25:14.709Z</time>
      </trkpt>
      <trkpt lat="38.64108" lon="-9.23675">
        <ele>12.90171146393</ele>
        <time>2019-08-23T21:25:17.358Z</time>
      </trkpt>
      <trkpt lat="38.6415" lon="-9.23695">
        <ele>14.54450130463</ele>
        <time>2019-08-23T21:25:20.017Z</time>
      </trkpt>
      <trkpt lat="38.64334" lon="-9.23776">
        <ele>13.26897335052</ele>
        <time>2019-08-23T21:25:22.717Z</time>
      </trkpt>
      <trkpt lat="38.64345" lon="-9.23782">
        <ele>14.43803882599</ele>
        <time>2019-08-23T21:25:25.420Z</time>
      </trkpt>
      <trkpt lat="38.64355" lon="-9.23792">
        <ele>14.34068489075</ele>
        <time>2019-08-23T21:25:28.126Z</time>
      </trkpt>
      <trkpt lat="38.64362" lon="-9.23804">
        <ele>13.68079471588</ele>
        <time>2019-08-23T21:25:30.834Z</time>
      </trkpt>
      <trkpt lat="38.64367" lon="-9.23818">
        <ele>12.94891643524</ele>
        <time>2019-08-23T21:25:33.545Z</time>
      </trkpt>
      <trkpt lat="38.64385" lon="-9.24008">
        <ele>5</ele>
        <time>2019-08-23T21:25:36.288Z</time>
      </trkpt>
      <trkpt lat="38.64387" lon="-9.24013">
        <ele>5</ele>
        <time>2019-08-23T21:25:39.032Z</time>
      </trkpt>
      <trkpt lat="38.64394" lon="-9.24019">
        <ele>5</ele>
        <time>2019-08-23T21:25:41.777Z</time>
      </trkpt>
      <trkpt lat="38.64401" lon="-9.24022">
        <ele>5</ele>
        <time>2019-08-23T21:25:44.524Z</time>
      </trkpt>
      <trkpt lat="38.64412" lon="-9.24021">
        <ele>5</ele>
        <time>2019-08-23T21:25:47.273Z</time>
      </trkpt>
      <trkpt lat="38.64419" lon="-9.24029">
        <ele>20.27037239075</ele>
        <time>2019-08-23T21:25:50.024Z</time>
      </trkpt>
      <trkpt lat="38.64421" lon="-9.24035">
        <ele>20.32076263428</ele>
        <time>2019-08-23T21:25:52.776Z</time>
      </trkpt>
      <trkpt lat="38.64419" lon="-9.24055">
        <ele>20.36395263672</ele>
        <time>2019-08-23T21:25:55.532Z</time>
      </trkpt>
      <trkpt lat="38.64421" lon="-9.24066">
        <ele>20.43234062195</ele>
        <time>2019-08-23T21:25:58.290Z</time>
      </trkpt>
      <trkpt lat="38.64426" lon="-9.24058">
        <ele>20.47553443909</ele>
        <time>2019-08-23T21:26:01.049Z</time>
      </trkpt>
      <trkpt lat="38.64424" lon="-9.24057">
        <ele>20.44314002991</ele>
        <time>2019-08-23T21:26:03.809Z</time>
      </trkpt>
      <trkpt lat="38.64426" lon="-9.24053">
        <ele>20.45753860474</ele>
        <time>2019-08-23T21:26:06.570Z</time>
      </trkpt>
      <trkpt lat="38.64423" lon="-9.2405">
        <ele>20.40354728699</ele>
        <time>2019-08-23T21:26:09.331Z</time>
      </trkpt>
      <trkpt lat="38.64437" lon="-9.24016">
        <ele>5.88972187042</ele>
        <time>2019-08-23T21:26:12.099Z</time>
      </trkpt>
      <trkpt lat="38.64875" lon="-9.24321">
        <ele>5.49603176117</ele>
        <time>2019-08-23T21:26:14.973Z</time>
      </trkpt>
      <trkpt lat="38.64899" lon="-9.24277">
        <ele>6.02394390106</ele>
        <time>2019-08-23T21:26:17.856Z</time>
      </trkpt>
      <trkpt lat="38.64913" lon="-9.24258">
        <ele>6.25190591812</ele>
        <time>2019-08-23T21:26:20.744Z</time>
      </trkpt>
      <trkpt lat="38.65231" lon="-9.24484">
        <ele>4.99889755249</ele>
        <time>2019-08-23T21:26:23.709Z</time>
      </trkpt>
      <trkpt lat="38.65228" lon="-9.24489">
        <ele>4.97490167618</ele>
        <time>2019-08-23T21:26:26.675Z</time>
      </trkpt>
      <trkpt lat="38.65229" lon="-9.24492">
        <ele>4.92690944672</ele>
        <time>2019-08-23T21:26:29.642Z</time>
      </trkpt>
      <trkpt lat="38.65229" lon="-9.24506">
        <ele>4.75893783569</ele>
        <time>2019-08-23T21:26:32.611Z</time>
      </trkpt>
      <trkpt lat="38.65189" lon="-9.24611">
        <ele>4.02093219757</ele>
        <time>2019-08-23T21:26:35.600Z</time>
      </trkpt>
      <trkpt lat="38.65189" lon="-9.24617">
        <ele>4.03754425049</ele>
        <time>2019-08-23T21:26:38.590Z</time>
      </trkpt>
      <trkpt lat="38.65196" lon="-9.24628">
        <ele>4.121530056</ele>
        <time>2019-08-23T21:26:41.582Z</time>
      </trkpt>
      <trkpt lat="38.65308" lon="-9.24703">
        <ele>2.982183218</ele>
        <time>2019-08-23T21:26:44.601Z</time>
      </trkpt>
      <trkpt lat="38.65479" lon="-9.24782">
        <ele>6</ele>
        <time>2019-08-23T21:26:47.659Z</time>
      </trkpt>
      <trkpt lat="38.65479" lon="-9.24804">
        <ele>6</ele>
        <time>2019-08-23T21:26:50.721Z</time>
      </trkpt>
      <trkpt lat="38.65509" lon="-9.24815">
        <ele>6</ele>
        <time>2019-08-23T21:26:53.789Z</time>
      </trkpt>
      <trkpt lat="38.65514" lon="-9.24813">
        <ele>6</ele>
        <time>2019-08-23T21:26:56.858Z</time>
      </trkpt>
      <trkpt lat="38.65518" lon="-9.24807">
        <ele>6</ele>
        <time>2019-08-23T21:26:59.929Z</time>
      </trkpt>
      <trkpt lat="38.65542" lon="-9.24798">
        <ele>6</ele>
        <time>2019-08-23T21:27:03.005Z</time>
      </trkpt>
      <trkpt lat="38.65548" lon="-9.24798">
        <ele>6</ele>
        <time>2019-08-23T21:27:06.082Z</time>
      </trkpt>
      <trkpt lat="38.65606" lon="-9.24844">
        <ele>6</ele>
        <time>2019-08-23T21:27:09.174Z</time>
      </trkpt>
      <trkpt lat="38.65645" lon="-9.24878">
        <ele>5.81314563751</ele>
        <time>2019-08-23T21:27:12.276Z</time>
      </trkpt>
      <trkpt lat="38.65649" lon="-9.2488">
        <ele>5.7891497612</ele>
        <time>2019-08-23T21:27:15.379Z</time>
      </trkpt>
      <trkpt lat="38.65653" lon="-9.24874">
        <ele>5.86113786697</ele>
        <time>2019-08-23T21:27:18.483Z</time>
      </trkpt>
      <trkpt lat="38.65673" lon="-9.24874">
        <ele>5.86113786697</ele>
        <time>2019-08-23T21:27:21.591Z</time>
      </trkpt>
      <trkpt lat="38.65679" lon="-9.24885">
        <ele>5.729159832</ele>
        <time>2019-08-23T21:27:24.702Z</time>
      </trkpt>
      <trkpt lat="38.65687" lon="-9.24888">
        <ele>5.69316577911</ele>
        <time>2019-08-23T21:27:27.814Z</time>
      </trkpt>
      <trkpt lat="38.65855" lon="-9.25012">
        <ele>6.20541381836</ele>
        <time>2019-08-23T21:27:30.968Z</time>
      </trkpt>
      <trkpt lat="38.6587" lon="-9.25028">
        <ele>6.01344585419</ele>
        <time>2019-08-23T21:27:34.126Z</time>
      </trkpt>
      <trkpt lat="38.65905" lon="-9.25077">
        <ele>6</ele>
        <time>2019-08-23T21:27:37.295Z</time>
      </trkpt>
      <trkpt lat="38.65925" lon="-9.25124">
        <ele>6</ele>
        <time>2019-08-23T21:27:40.473Z</time>
      </trkpt>
      <trkpt lat="38.65932" lon="-9.25133">
        <ele>6</ele>
        <time>2019-08-23T21:27:43.653Z</time>
      </trkpt>
      <trkpt lat="38.65937" lon="-9.25133">
        <ele>6.01204824448</ele>
        <time>2019-08-23T21:27:46.834Z</time>
      </trkpt>
      <trkpt lat="38.65966" lon="-9.25153">
        <ele>6.35999059677</ele>
        <time>2019-08-23T21:27:50.022Z</time>
      </trkpt>
      <trkpt lat="38.65978" lon="-9.2517">
        <ele>6.11549282074</ele>
        <time>2019-08-23T21:27:53.214Z</time>
      </trkpt>
      <trkpt lat="38.65993" lon="-9.25209">
        <ele>5.15787124634</ele>
        <time>2019-08-23T21:27:56.413Z</time>
      </trkpt>
      <trkpt lat="38.66007" lon="-9.25261">
        <ele>5</ele>
        <time>2019-08-23T21:27:59.621Z</time>
      </trkpt>
      <trkpt lat="38.66021" lon="-9.25296">
        <ele>5</ele>
        <time>2019-08-23T21:28:02.836Z</time>
      </trkpt>
      <trkpt lat="38.66048" lon="-9.25362">
        <ele>5.33771276474</ele>
        <time>2019-08-23T21:28:06.064Z</time>
      </trkpt>
      <trkpt lat="38.66069" lon="-9.254">
        <ele>6</ele>
        <time>2019-08-23T21:28:09.299Z</time>
      </trkpt>
      <trkpt lat="38.66099" lon="-9.25433">
        <ele>6</ele>
        <time>2019-08-23T21:28:12.543Z</time>
      </trkpt>
      <trkpt lat="38.66204" lon="-9.25515">
        <ele>5</ele>
        <time>2019-08-23T21:28:15.813Z</time>
      </trkpt>
      <trkpt lat="38.66209" lon="-9.25524">
        <ele>5</ele>
        <time>2019-08-23T21:28:19.085Z</time>
      </trkpt>
      <trkpt lat="38.66215" lon="-9.25552">
        <ele>5</ele>
        <time>2019-08-23T21:28:22.362Z</time>
      </trkpt>
      <trkpt lat="38.66219" lon="-9.25557">
        <ele>5</ele>
        <time>2019-08-23T21:28:25.640Z</time>
      </trkpt>
      <trkpt lat="38.66252" lon="-9.25571">
        <ele>5</ele>
        <time>2019-08-23T21:28:28.925Z</time>
      </trkpt>
      <trkpt lat="38.66261" lon="-9.25572">
        <ele>5</ele>
        <time>2019-08-23T21:28:32.212Z</time>
      </trkpt>
      <trkpt lat="38.66264" lon="-9.25588">
        <ele>5</ele>
        <time>2019-08-23T21:28:35.502Z</time>
      </trkpt>
      <trkpt lat="38.66271" lon="-9.25601">
        <ele>5.01938056946</ele>
        <time>2019-08-23T21:28:38.795Z</time>
      </trkpt>
      <trkpt lat="38.6629" lon="-9.25622">
        <ele>5</ele>
        <time>2019-08-23T21:28:42.093Z</time>
      </trkpt>
      <trkpt lat="38.66298" lon="-9.25633">
        <ele>5</ele>
        <time>2019-08-23T21:28:45.393Z</time>
      </trkpt>
      <trkpt lat="38.66305" lon="-9.25655">
        <ele>5</ele>
        <time>2019-08-23T21:28:48.697Z</time>
      </trkpt>
      <trkpt lat="38.66309" lon="-9.25673">
        <ele>5</ele>
        <time>2019-08-23T21:28:52.005Z</time>
      </trkpt>
      <trkpt lat="38.66307" lon="-9.25694">
        <ele>5</ele>
        <time>2019-08-23T21:28:55.316Z</time>
      </trkpt>
      <trkpt lat="38.66303" lon="-9.25717">
        <ele>5</ele>
        <time>2019-08-23T21:28:58.631Z</time>
      </trkpt>
      <trkpt lat="38.66388" lon="-9.25731">
        <ele>5.00199794769</ele>
        <time>2019-08-23T21:29:01.964Z</time>
      </trkpt>
      <trkpt lat="38.66399" lon="-9.25738">
        <ele>4.9294719696</ele>
        <time>2019-08-23T21:29:05.300Z</time>
      </trkpt>
      <trkpt lat="38.66423" lon="-9.25747">
        <ele>4.31757354736</ele>
        <time>2019-08-23T21:29:08.641Z</time>
      </trkpt>
      <trkpt lat="38.66416" lon="-9.25746">
        <ele>4.4375538826</ele>
        <time>2019-08-23T21:29:11.984Z</time>
      </trkpt>
      <trkpt lat="38.66394" lon="-9.25734">
        <ele>5.03799200058</ele>
        <time>2019-08-23T21:29:15.332Z</time>
      </trkpt>
      <trkpt lat="38.66397" lon="-9.25724">
        <ele>5.19396591187</ele>
        <time>2019-08-23T21:29:18.682Z</time>
      </trkpt>
      <trkpt lat="38.66424" lon="-9.25683">
        <ele>5.85507440567</ele>
        <time>2019-08-23T21:29:22.041Z</time>
      </trkpt>
      <trkpt lat="38.66416" lon="-9.25675">
        <ele>5.75909042358</ele>
        <time>2019-08-23T21:29:25.402Z</time>
      </trkpt>
      <trkpt lat="38.66407" lon="-9.25669">
        <ele>5.65110874176</ele>
        <time>2019-08-23T21:29:28.765Z</time>
      </trkpt>
      <trkpt lat="38.66387" lon="-9.25664">
        <ele>5.41114854813</ele>
        <time>2019-08-23T21:29:32.132Z</time>
      </trkpt>
      <trkpt lat="38.66378" lon="-9.25658">
        <ele>5.30316638947</ele>
        <time>2019-08-23T21:29:35.501Z</time>
      </trkpt>
      <trkpt lat="38.66373" lon="-9.25647">
        <ele>5.24317646027</ele>
        <time>2019-08-23T21:29:38.873Z</time>
      </trkpt>
      <trkpt lat="38.66352" lon="-9.25631">
        <ele>5</ele>
        <time>2019-08-23T21:29:42.250Z</time>
      </trkpt>
      <trkpt lat="38.66334" lon="-9.25612">
        <ele>5.00661325455</ele>
        <time>2019-08-23T21:29:45.632Z</time>
      </trkpt>
      <trkpt lat="38.66326" lon="-9.25598">
        <ele>5.17458534241</ele>
        <time>2019-08-23T21:29:49.017Z</time>
      </trkpt>
      <trkpt lat="38.66326" lon="-9.25593">
        <ele>5.23457527161</ele>
        <time>2019-08-23T21:29:52.403Z</time>
      </trkpt>
      <trkpt lat="38.66328" lon="-9.2559">
        <ele>5.27056932449</ele>
        <time>2019-08-23T21:29:55.789Z</time>
      </trkpt>
      <trkpt lat="38.66363" lon="-9.25567">
        <ele>5.54652357101</ele>
        <time>2019-08-23T21:29:59.184Z</time>
      </trkpt>
      <trkpt lat="38.66392" lon="-9.25543">
        <ele>5.83447551727</ele>
        <time>2019-08-23T21:30:02.586Z</time>
      </trkpt>
      <trkpt lat="38.66464" lon="-9.25477">
        <ele>4.66002130508</ele>
        <time>2019-08-23T21:30:06.007Z</time>
      </trkpt>
      <trkpt lat="38.66468" lon="-9.25469">
        <ele>4.46805334091</ele>
        <time>2019-08-23T21:30:09.429Z</time>
      </trkpt>
      <trkpt lat="38.66468" lon="-9.25454">
        <ele>4.46805334091</ele>
        <time>2019-08-23T21:30:12.854Z</time>
      </trkpt>
      <trkpt lat="38.66467" lon="-9.25449">
        <ele>4.51604557037</ele>
        <time>2019-08-23T21:30:16.280Z</time>
      </trkpt>
      <trkpt lat="38.66468" lon="-9.25446">
        <ele>4.46805334091</ele>
        <time>2019-08-23T21:30:19.706Z</time>
      </trkpt>
      <trkpt lat="38.66472" lon="-9.25441">
        <ele>4.45090007782</ele>
        <time>2019-08-23T21:30:23.134Z</time>
      </trkpt>
      <trkpt lat="38.6647" lon="-9.25351">
        <ele>6.04794311523</ele>
        <time>2019-08-23T21:30:26.577Z</time>
      </trkpt>
      <trkpt lat="38.66472" lon="-9.25331">
        <ele>5.75999116898</ele>
        <time>2019-08-23T21:30:30.023Z</time>
      </trkpt>
      <trkpt lat="38.66513" lon="-9.25104">
        <ele>5.89840221405</ele>
        <time>2019-08-23T21:30:33.508Z</time>
      </trkpt>
      <trkpt lat="38.66538" lon="-9.24986">
        <ele>3.89360809326</ele>
        <time>2019-08-23T21:30:37.013Z</time>
      </trkpt>
      <trkpt lat="38.66555" lon="-9.24929">
        <ele>3.25612068176</ele>
        <time>2019-08-23T21:30:40.529Z</time>
      </trkpt>
      <trkpt lat="38.66562" lon="-9.24899">
        <ele>4.24475097656</ele>
        <time>2019-08-23T21:30:44.050Z</time>
      </trkpt>
      <trkpt lat="38.66575" lon="-9.24806">
        <ele>7.3437743187</ele>
        <time>2019-08-23T21:30:47.587Z</time>
      </trkpt>
      <trkpt lat="38.66581" lon="-9.24742">
        <ele>6.84901332855</ele>
        <time>2019-08-23T21:30:51.134Z</time>
      </trkpt>
      <trkpt lat="38.66584" lon="-9.24662">
        <ele>6.4504904747</ele>
        <time>2019-08-23T21:30:54.695Z</time>
      </trkpt>
      <trkpt lat="38.6659" lon="-9.24649">
        <ele>6.30651473999</ele>
        <time>2019-08-23T21:30:58.258Z</time>
      </trkpt>
      <trkpt lat="38.66616" lon="-9.24556">
        <ele>6</ele>
        <time>2019-08-23T21:31:01.838Z</time>
      </trkpt>
      <trkpt lat="38.66637" lon="-9.24537">
        <ele>6</ele>
        <time>2019-08-23T21:31:05.423Z</time>
      </trkpt>
      <trkpt lat="38.66643" lon="-9.24524">
        <ele>6.12087583542</ele>
        <time>2019-08-23T21:31:09.011Z</time>
      </trkpt>
      <trkpt lat="38.66652" lon="-9.24491">
        <ele>6.91274356842</ele>
        <time>2019-08-23T21:31:12.605Z</time>
      </trkpt>
      <trkpt lat="38.6665" lon="-9.24485">
        <ele>7.05671977997</ele>
        <time>2019-08-23T21:31:16.200Z</time>
      </trkpt>
      <trkpt lat="38.66645" lon="-9.24473">
        <ele>7.51037502289</ele>
        <time>2019-08-23T21:31:19.797Z</time>
      </trkpt>
      <trkpt lat="38.66646" lon="-9.24455">
        <ele>8.1462688446</ele>
        <time>2019-08-23T21:31:23.397Z</time>
      </trkpt>
      <trkpt lat="38.66649" lon="-9.24446">
        <ele>8.4342212677</ele>
        <time>2019-08-23T21:31:26.999Z</time>
      </trkpt>
      <trkpt lat="38.66656" lon="-9.24437">
        <ele>8.46565341949</ele>
        <time>2019-08-23T21:31:30.603Z</time>
      </trkpt>
      <trkpt lat="38.66664" lon="-9.24435">
        <ele>8.39366531372</ele>
        <time>2019-08-23T21:31:34.209Z</time>
      </trkpt>
      <trkpt lat="38.66697" lon="-9.24439">
        <ele>7.94973897934</ele>
        <time>2019-08-23T21:31:37.822Z</time>
      </trkpt>
      <trkpt lat="38.66704" lon="-9.24436">
        <ele>7.90174722672</ele>
        <time>2019-08-23T21:31:41.436Z</time>
      </trkpt>
      <trkpt lat="38.66713" lon="-9.24429">
        <ele>7.8777513504</ele>
        <time>2019-08-23T21:31:45.052Z</time>
      </trkpt>
      <trkpt lat="38.66729" lon="-9.24407">
        <ele>7.94973897934</ele>
        <time>2019-08-23T21:31:48.673Z</time>
      </trkpt>
      <trkpt lat="38.6676" lon="-9.24337">
        <ele>7.80953359604</ele>
        <time>2019-08-23T21:31:52.308Z</time>
      </trkpt>
      <trkpt lat="38.66767" lon="-9.24333">
        <ele>7.67755556107</ele>
        <time>2019-08-23T21:31:55.945Z</time>
      </trkpt>
      <trkpt lat="38.66773" lon="-9.24333">
        <ele>7.64794397354</ele>
        <time>2019-08-23T21:31:59.583Z</time>
      </trkpt>
      <trkpt lat="38.66805" lon="-9.24343">
        <ele>7.96216106415</ele>
        <time>2019-08-23T21:32:03.228Z</time>
      </trkpt>
      <trkpt lat="38.66806" lon="-9.24334">
        <ele>7.7581949234</ele>
        <time>2019-08-23T21:32:06.874Z</time>
      </trkpt>
      <trkpt lat="38.66815" lon="-9.24313">
        <ele>7.40798425674</ele>
        <time>2019-08-23T21:32:10.524Z</time>
      </trkpt>
      <trkpt lat="38.66842" lon="-9.24322">
        <ele>7.90217113495</ele>
        <time>2019-08-23T21:32:14.180Z</time>
      </trkpt>
      <trkpt lat="38.66843" lon="-9.24315">
        <ele>7.74619674683</ele>
        <time>2019-08-23T21:32:17.838Z</time>
      </trkpt>
      <trkpt lat="38.66876" lon="-9.24239">
        <ele>6.52013206482</ele>
        <time>2019-08-23T21:32:21.510Z</time>
      </trkpt>
      <trkpt lat="38.66911" lon="-9.2422">
        <ele>6.29217004776</ele>
        <time>2019-08-23T21:32:25.190Z</time>
      </trkpt>
      <trkpt lat="38.66934" lon="-9.24201">
        <ele>6.02594518661</ele>
        <time>2019-08-23T21:32:28.876Z</time>
      </trkpt>
      <trkpt lat="38.66948" lon="-9.2418">
        <ele>4.85311603546</ele>
        <time>2019-08-23T21:32:32.567Z</time>
      </trkpt>
      <trkpt lat="38.66968" lon="-9.2413">
        <ele>5.45301580429</ele>
        <time>2019-08-23T21:32:36.267Z</time>
      </trkpt>
      <trkpt lat="38.66991" lon="-9.24039">
        <ele>6.68411827087</ele>
        <time>2019-08-23T21:32:39.983Z</time>
      </trkpt>
      <trkpt lat="38.6701" lon="-9.23995">
        <ele>7.45033454895</ele>
        <time>2019-08-23T21:32:43.707Z</time>
      </trkpt>
      <trkpt lat="38.67018" lon="-9.23984">
        <ele>7.6543006897</ele>
        <time>2019-08-23T21:32:47.434Z</time>
      </trkpt>
      <trkpt lat="38.67018" lon="-9.23976">
        <ele>7.94225263596</ele>
        <time>2019-08-23T21:32:51.162Z</time>
      </trkpt>
      <trkpt lat="38.67058" lon="-9.23896">
        <ele>8.53819274902</ele>
        <time>2019-08-23T21:32:54.906Z</time>
      </trkpt>
      <trkpt lat="38.67015" lon="-9.23824">
        <ele>12.02476406097</ele>
        <time>2019-08-23T21:32:58.665Z</time>
      </trkpt>
      <trkpt lat="38.66998" lon="-9.2381">
        <ele>14.0524263382</ele>
        <time>2019-08-23T21:33:02.429Z</time>
      </trkpt>
      <trkpt lat="38.66994" lon="-9.23805">
        <ele>14.65232658386</ele>
        <time>2019-08-23T21:33:06.194Z</time>
      </trkpt>
      <trkpt lat="38.66991" lon="-9.23787">
        <ele>17.10817337036</ele>
        <time>2019-08-23T21:33:09.962Z</time>
      </trkpt>
      <trkpt lat="38.67091" lon="-9.23686">
        <ele>15.05558204651</ele>
        <time>2019-08-23T21:33:13.757Z</time>
      </trkpt>
      <trkpt lat="38.6709" lon="-9.23686">
        <ele>15.11557197571</ele>
        <time>2019-08-23T21:33:17.552Z</time>
      </trkpt>
      <trkpt lat="38.67103" lon="-9.23668">
        <ele>14.98359394073</ele>
        <time>2019-08-23T21:33:21.351Z</time>
      </trkpt>
      <trkpt lat="38.67131" lon="-9.23621">
        <ele>14.99559211731</ele>
        <time>2019-08-23T21:33:25.160Z</time>
      </trkpt>
      <trkpt lat="38.67143" lon="-9.23594">
        <ele>15.02897167206</ele>
        <time>2019-08-23T21:33:28.974Z</time>
      </trkpt>
      <trkpt lat="38.67157" lon="-9.23556">
        <ele>15.02628040314</ele>
        <time>2019-08-23T21:33:32.795Z</time>
      </trkpt>
      <trkpt lat="38.67187" lon="-9.23417">
        <ele>13.30402851105</ele>
        <time>2019-08-23T21:33:36.640Z</time>
      </trkpt>
      <trkpt lat="38.67054" lon="-9.2337">
        <ele>19.4386100769</ele>
        <time>2019-08-23T21:33:40.515Z</time>
      </trkpt>
      <trkpt lat="38.67067" lon="-9.23304">
        <ele>19.8604221344</ele>
        <time>2019-08-23T21:33:44.401Z</time>
      </trkpt>
      <trkpt lat="38.67035" lon="-9.23294">
        <ele>20.62829399109</ele>
        <time>2019-08-23T21:33:48.294Z</time>
      </trkpt>
      <trkpt lat="38.67047" lon="-9.23216">
        <ele>21.84798622131</ele>
        <time>2019-08-23T21:33:52.201Z</time>
      </trkpt>
      <trkpt lat="38.67018" lon="-9.23207">
        <ele>22.75983428955</ele>
        <time>2019-08-23T21:33:56.114Z</time>
      </trkpt>
      <trkpt lat="38.67029" lon="-9.23149">
        <ele>22.54454040527</ele>
        <time>2019-08-23T21:34:00.037Z</time>
      </trkpt>
      <trkpt lat="38.67015" lon="-9.23145">
        <ele>22.89178466797</ele>
        <time>2019-08-23T21:34:03.963Z</time>
      </trkpt>
      <trkpt lat="38.67025" lon="-9.23096">
        <ele>25.4547328949</ele>
        <time>2019-08-23T21:34:07.897Z</time>
      </trkpt>
      <trkpt lat="38.67025" lon="-9.23084">
        <ele>27.18244552612</ele>
        <time>2019-08-23T21:34:11.833Z</time>
      </trkpt>
      <trkpt lat="38.67023" lon="-9.23081">
        <ele>27.56638145447</ele>
        <time>2019-08-23T21:34:15.770Z</time>
      </trkpt>
      <trkpt lat="38.67019" lon="-9.23076">
        <ele>28.20250892639</ele>
        <time>2019-08-23T21:34:19.708Z</time>
      </trkpt>
      <trkpt lat="38.66864" lon="-9.22955">
        <ele>42.21886825562</ele>
        <time>2019-08-23T21:34:23.685Z</time>
      </trkpt>
      <trkpt lat="38.66841" lon="-9.22941">
        <ele>44.42029571533</ele>
        <time>2019-08-23T21:34:27.668Z</time>
      </trkpt>
      <trkpt lat="38.6673" lon="-9.2291">
        <ele>56.47608184814</ele>
        <time>2019-08-23T21:34:31.675Z</time>
      </trkpt>
      <trkpt lat="38.66608" lon="-9.22863">
        <ele>60.57834243774</ele>
        <time>2019-08-23T21:34:35.709Z</time>
      </trkpt>
      <trkpt lat="38.66587" lon="-9.22853">
        <ele>58.76206588745</ele>
        <time>2019-08-23T21:34:39.748Z</time>
      </trkpt>
      <trkpt lat="38.66578" lon="-9.22844">
        <ele>58.33013534546</ele>
        <time>2019-08-23T21:34:43.789Z</time>
      </trkpt>
      <trkpt lat="38.66571" lon="-9.22823">
        <ele>59.00202560425</ele>
        <time>2019-08-23T21:34:47.834Z</time>
      </trkpt>
      <trkpt lat="38.66567" lon="-9.22778">
        <ele>64.34577941895</ele>
        <time>2019-08-23T21:34:51.887Z</time>
      </trkpt>
      <trkpt lat="38.66569" lon="-9.22723">
        <ele>69.5053024292</ele>
        <time>2019-08-23T21:34:55.949Z</time>
      </trkpt>
      <trkpt lat="38.66565" lon="-9.22711">
        <ele>71.47297668457</ele>
        <time>2019-08-23T21:35:00.013Z</time>
      </trkpt>
      <trkpt lat="38.66562" lon="-9.22706">
        <ele>72.32483673096</ele>
        <time>2019-08-23T21:35:04.078Z</time>
      </trkpt>
      <trkpt lat="38.66554" lon="-9.227">
        <ele>73.45264434814</ele>
        <time>2019-08-23T21:35:08.145Z</time>
      </trkpt>
      <trkpt lat="38.66546" lon="-9.22698">
        <ele>73.95656585693</ele>
        <time>2019-08-23T21:35:12.214Z</time>
      </trkpt>
      <trkpt lat="38.66535" lon="-9.22701">
        <ele>73.75259399414</ele>
        <time>2019-08-23T21:35:16.285Z</time>
      </trkpt>
      <trkpt lat="38.66512" lon="-9.2271">
        <ele>72.27703094482</ele>
        <time>2019-08-23T21:35:20.361Z</time>
      </trkpt>
      <trkpt lat="38.66506" lon="-9.2271">
        <ele>71.91709136963</ele>
        <time>2019-08-23T21:35:24.439Z</time>
      </trkpt>
      <trkpt lat="38.66493" lon="-9.22707">
        <ele>71.42727661133</ele>
        <time>2019-08-23T21:35:28.519Z</time>
      </trkpt>
      <trkpt lat="38.6648" lon="-9.22694">
        <ele>72.32955932617</ele>
        <time>2019-08-23T21:35:32.603Z</time>
      </trkpt>
      <trkpt lat="38.66467" lon="-9.22671">
        <ele>74.15325927734</ele>
        <time>2019-08-23T21:35:36.692Z</time>
      </trkpt>
      <trkpt lat="38.66451" lon="-9.22625">
        <ele>77.8549118042</ele>
        <time>2019-08-23T21:35:40.789Z</time>
      </trkpt>
      <trkpt lat="38.6641" lon="-9.22538">
        <ele>86.62199401855</ele>
        <time>2019-08-23T21:35:44.903Z</time>
      </trkpt>
      <trkpt lat="38.66407" lon="-9.22523">
        <ele>88.24527740479</ele>
        <time>2019-08-23T21:35:49.020Z</time>
      </trkpt>
      <trkpt lat="38.66407" lon="-9.22516">
        <ele>88.91716003418</ele>
        <time>2019-08-23T21:35:53.138Z</time>
      </trkpt>
      <trkpt lat="38.66411" lon="-9.22501">
        <ele>90.26094055176</ele>
        <time>2019-08-23T21:35:57.258Z</time>
      </trkpt>
      <trkpt lat="38.66416" lon="-9.22494">
        <ele>90.81284332275</ele>
        <time>2019-08-23T21:36:01.380Z</time>
      </trkpt>
      <trkpt lat="38.66425" lon="-9.22486">
        <ele>91.36475372314</ele>
        <time>2019-08-23T21:36:05.504Z</time>
      </trkpt>
      <trkpt lat="38.6643" lon="-9.22484">
        <ele>91.43674468994</ele>
        <time>2019-08-23T21:36:09.629Z</time>
      </trkpt>
      <trkpt lat="38.66439" lon="-9.22484">
        <ele>91.43104553223</ele>
        <time>2019-08-23T21:36:13.756Z</time>
      </trkpt>
      <trkpt lat="38.66448" lon="-9.22488">
        <ele>91.47904205322</ele>
        <time>2019-08-23T21:36:17.885Z</time>
      </trkpt>
      <trkpt lat="38.6647" lon="-9.22514">
        <ele>90.26984405518</ele>
        <time>2019-08-23T21:36:22.021Z</time>
      </trkpt>
      <trkpt lat="38.66478" lon="-9.22523">
        <ele>89.99388885498</ele>
        <time>2019-08-23T21:36:26.159Z</time>
      </trkpt>
      <trkpt lat="38.66493" lon="-9.22526">
        <ele>90.64177703857</ele>
        <time>2019-08-23T21:36:30.300Z</time>
      </trkpt>
      <trkpt lat="38.66507" lon="-9.22521">
        <ele>91.90157318115</ele>
        <time>2019-08-23T21:36:34.444Z</time>
      </trkpt>
      <trkpt lat="38.66548" lon="-9.22474">
        <ele>97.62284851074</ele>
        <time>2019-08-23T21:36:38.600Z</time>
      </trkpt>
      <trkpt lat="38.6657" lon="-9.22454">
        <ele>100.09443664551</ele>
        <time>2019-08-23T21:36:42.762Z</time>
      </trkpt>
      <trkpt lat="38.66619" lon="-9.22426">
        <ele>103.55058288574</ele>
        <time>2019-08-23T21:36:46.935Z</time>
      </trkpt>
      <trkpt lat="38.66689" lon="-9.22379">
        <ele>108.59571075439</ele>
        <time>2019-08-23T21:36:51.125Z</time>
      </trkpt>
      <trkpt lat="38.66708" lon="-9.22358">
        <ele>110.33451080322</ele>
        <time>2019-08-23T21:36:55.321Z</time>
      </trkpt>
      <trkpt lat="38.66711" lon="-9.2234">
        <ele>109.47064971924</ele>
        <time>2019-08-23T21:36:59.520Z</time>
      </trkpt>
      <trkpt lat="38.66706" lon="-9.22321">
        <ele>108.22442626953</ele>
        <time>2019-08-23T21:37:03.722Z</time>
      </trkpt>
      <trkpt lat="38.66697" lon="-9.22309">
        <ele>107.10861206055</ele>
        <time>2019-08-23T21:37:07.927Z</time>
      </trkpt>
      <trkpt lat="38.66664" lon="-9.22285">
        <ele>105.53080749512</ele>
        <time>2019-08-23T21:37:12.140Z</time>
      </trkpt>
      <trkpt lat="38.66645" lon="-9.22266">
        <ele>105.0751953125</ele>
        <time>2019-08-23T21:37:16.358Z</time>
      </trkpt>
      <trkpt lat="38.66633" lon="-9.22246">
        <ele>104.04029846191</ele>
        <time>2019-08-23T21:37:20.580Z</time>
      </trkpt>
      <trkpt lat="38.66626" lon="-9.22213">
        <ele>103.75234222412</ele>
        <time>2019-08-23T21:37:24.808Z</time>
      </trkpt>
      <trkpt lat="38.66607" lon="-9.22172">
        <ele>104.8985824585</ele>
        <time>2019-08-23T21:37:29.044Z</time>
      </trkpt>
      <trkpt lat="38.66596" lon="-9.2214">
        <ele>104.59365081787</ele>
        <time>2019-08-23T21:37:33.286Z</time>
      </trkpt>
      <trkpt lat="38.66584" lon="-9.22116">
        <ele>103.52003479004</ele>
        <time>2019-08-23T21:37:37.533Z</time>
      </trkpt>
      <trkpt lat="38.6653" lon="-9.22038">
        <ele>104.59285736084</ele>
        <time>2019-08-23T21:37:41.797Z</time>
      </trkpt>
      <trkpt lat="38.66518" lon="-9.22015">
        <ele>104.94094848633</ele>
        <time>2019-08-23T21:37:46.066Z</time>
      </trkpt>
      <trkpt lat="38.6651" lon="-9.21989">
        <ele>104.00510406494</ele>
        <time>2019-08-23T21:37:50.339Z</time>
      </trkpt>
      <trkpt lat="38.66507" lon="-9.21961">
        <ele>103.87312316895</ele>
        <time>2019-08-23T21:37:54.617Z</time>
      </trkpt>
      <trkpt lat="38.66494" lon="-9.21961">
        <ele>102.31097412109</ele>
        <time>2019-08-23T21:37:58.898Z</time>
      </trkpt>
      <trkpt lat="38.66487" lon="-9.21935">
        <ele>102.25201416016</ele>
        <time>2019-08-23T21:38:03.183Z</time>
      </trkpt>
      <trkpt lat="38.66405" lon="-9.21781">
        <ele>98.8547668457</ele>
        <time>2019-08-23T21:38:07.499Z</time>
      </trkpt>
      <trkpt lat="38.66405" lon="-9.21772">
        <ele>99.07893371582</ele>
        <time>2019-08-23T21:38:11.817Z</time>
      </trkpt>
      <trkpt lat="38.66397" lon="-9.21761">
        <ele>99.21091461182</ele>
        <time>2019-08-23T21:38:16.137Z</time>
      </trkpt>
      <trkpt lat="38.66395" lon="-9.21753">
        <ele>99.30690002441</ele>
        <time>2019-08-23T21:38:20.459Z</time>
      </trkpt>
      <trkpt lat="38.66387" lon="-9.21743">
        <ele>99.44260406494</ele>
        <time>2019-08-23T21:38:24.783Z</time>
      </trkpt>
      <trkpt lat="38.66374" lon="-9.21734">
        <ele>99.81454467773</ele>
        <time>2019-08-23T21:38:29.110Z</time>
      </trkpt>
      <trkpt lat="38.66376" lon="-9.21727">
        <ele>99.95851898193</ele>
        <time>2019-08-23T21:38:33.439Z</time>
      </trkpt>
      <trkpt lat="38.66385" lon="-9.21718">
        <ele>100.06649780273</ele>
        <time>2019-08-23T21:38:37.770Z</time>
      </trkpt>
      <trkpt lat="38.66442" lon="-9.21592">
        <ele>104.30949401855</ele>
        <time>2019-08-23T21:38:42.125Z</time>
      </trkpt>
      <trkpt lat="38.66445" lon="-9.21566">
        <ele>105.73725128174</ele>
        <time>2019-08-23T21:38:46.485Z</time>
      </trkpt>
      <trkpt lat="38.66441" lon="-9.21532">
        <ele>107.12902069092</ele>
        <time>2019-08-23T21:38:50.851Z</time>
      </trkpt>
      <trkpt lat="38.66428" lon="-9.21463">
        <ele>107.88324737549</ele>
        <time>2019-08-23T21:38:55.228Z</time>
      </trkpt>
      <trkpt lat="38.66431" lon="-9.21452">
        <ele>107.97923278809</ele>
        <time>2019-08-23T21:38:59.607Z</time>
      </trkpt>
      <trkpt lat="38.66438" lon="-9.21446">
        <ele>107.99028015137</ele>
        <time>2019-08-23T21:39:03.988Z</time>
      </trkpt>
      <trkpt lat="38.66446" lon="-9.2148">
        <ele>107.58235168457</ele>
        <time>2019-08-23T21:39:08.375Z</time>
      </trkpt>
      <trkpt lat="38.66448" lon="-9.21457">
        <ele>107.85830688477</ele>
        <time>2019-08-23T21:39:12.766Z</time>
      </trkpt>
      <trkpt lat="38.66445" lon="-9.21428">
        <ele>107.05234527588</ele>
        <time>2019-08-23T21:39:17.162Z</time>
      </trkpt>
      <trkpt lat="38.66446" lon="-9.21388">
        <ele>106.03251647949</ele>
        <time>2019-08-23T21:39:21.565Z</time>
      </trkpt>
      <trkpt lat="38.66433" lon="-9.21295">
        <ele>106.76503753662</ele>
        <time>2019-08-23T21:39:25.983Z</time>
      </trkpt>
      <trkpt lat="38.66439" lon="-9.21219">
        <ele>108.3575668335</ele>
        <time>2019-08-23T21:39:30.414Z</time>
      </trkpt>
      <trkpt lat="38.66433" lon="-9.21109">
        <ele>107.60695648193</ele>
        <time>2019-08-23T21:39:34.864Z</time>
      </trkpt>
      <trkpt lat="38.66428" lon="-9.21046">
        <ele>104.16353607178</ele>
        <time>2019-08-23T21:39:39.324Z</time>
      </trkpt>
      <trkpt lat="38.6642" lon="-9.21014">
        <ele>102.64958190918</ele>
        <time>2019-08-23T21:39:43.790Z</time>
      </trkpt>
      <trkpt lat="38.66409" lon="-9.20981">
        <ele>101.725730896</ele>
        <time>2019-08-23T21:39:48.262Z</time>
      </trkpt>
      <trkpt lat="38.66393" lon="-9.20949">
        <ele>100.38195800781</ele>
        <time>2019-08-23T21:39:52.740Z</time>
      </trkpt>
      <trkpt lat="38.66375" lon="-9.20943">
        <ele>98.81965637207</ele>
        <time>2019-08-23T21:39:57.222Z</time>
      </trkpt>
      <trkpt lat="38.66368" lon="-9.20945">
        <ele>98.27974700928</ele>
        <time>2019-08-23T21:40:01.706Z</time>
      </trkpt>
      <trkpt lat="38.66364" lon="-9.20943">
        <ele>97.89580535889</ele>
        <time>2019-08-23T21:40:06.191Z</time>
      </trkpt>
      <trkpt lat="38.66359" lon="-9.20935">
        <ele>97.51419067383</ele>
        <time>2019-08-23T21:40:10.677Z</time>
      </trkpt>
      <trkpt lat="38.66359" lon="-9.20927">
        <ele>97.80214691162</ele>
        <time>2019-08-23T21:40:15.165Z</time>
      </trkpt>
      <trkpt lat="38.66359" lon="-9.20919">
        <ele>98.09009552002</ele>
        <time>2019-08-23T21:40:19.654Z</time>
      </trkpt>
      <trkpt lat="38.6636" lon="-9.20914">
        <ele>98.29405975342</ele>
        <time>2019-08-23T21:40:24.144Z</time>
      </trkpt>
      <trkpt lat="38.66367" lon="-9.20908">
        <ele>98.67800140381</ele>
        <time>2019-08-23T21:40:28.636Z</time>
      </trkpt>
      <trkpt lat="38.6637" lon="-9.20878">
        <ele>99.8298034668</ele>
        <time>2019-08-23T21:40:33.133Z</time>
      </trkpt>
      <trkpt lat="38.66373" lon="-9.20508">
        <ele>86.05212402344</ele>
        <time>2019-08-23T21:40:37.691Z</time>
      </trkpt>
      <trkpt lat="38.66372" lon="-9.20501">
        <ele>85.95613861084</ele>
        <time>2019-08-23T21:40:42.251Z</time>
      </trkpt>
      <trkpt lat="38.66367" lon="-9.20485">
        <ele>85.93214416504</ele>
        <time>2019-08-23T21:40:46.814Z</time>
      </trkpt>
      <trkpt lat="38.66352" lon="-9.20461">
        <ele>86.40093994141</ele>
        <time>2019-08-23T21:40:51.382Z</time>
      </trkpt>
      <trkpt lat="38.6635" lon="-9.20453">
        <ele>86.25695800781</ele>
        <time>2019-08-23T21:40:55.951Z</time>
      </trkpt>
      <trkpt lat="38.66351" lon="-9.20443">
        <ele>86.11089324951</ele>
        <time>2019-08-23T21:41:00.522Z</time>
      </trkpt>
      <trkpt lat="38.66354" lon="-9.20433">
        <ele>86.24287414551</ele>
        <time>2019-08-23T21:41:05.095Z</time>
      </trkpt>
      <trkpt lat="38.66366" lon="-9.20418">
        <ele>86.17088317871</ele>
        <time>2019-08-23T21:41:09.671Z</time>
      </trkpt>
      <trkpt lat="38.66377" lon="-9.20397">
        <ele>86.27886199951</ele>
        <time>2019-08-23T21:41:14.251Z</time>
      </trkpt>
      <trkpt lat="38.66379" lon="-9.20388">
        <ele>86.42284393311</ele>
        <time>2019-08-23T21:41:18.833Z</time>
      </trkpt>
      <trkpt lat="38.66374" lon="-9.20358">
        <ele>87.41090393066</ele>
        <time>2019-08-23T21:41:23.420Z</time>
      </trkpt>
      <trkpt lat="38.66368" lon="-9.20348">
        <ele>88.10678863525</ele>
        <time>2019-08-23T21:41:28.009Z</time>
      </trkpt>
      <trkpt lat="38.6635" lon="-9.2033">
        <ele>88</ele>
        <time>2019-08-23T21:41:32.603Z</time>
      </trkpt>
      <trkpt lat="38.66347" lon="-9.20325">
        <ele>88</ele>
        <time>2019-08-23T21:41:37.198Z</time>
      </trkpt>
      <trkpt lat="38.66337" lon="-9.20284">
        <ele>87.75857543945</ele>
        <time>2019-08-23T21:41:41.800Z</time>
      </trkpt>
      <trkpt lat="38.66341" lon="-9.20184">
        <ele>91.80855560303</ele>
        <time>2019-08-23T21:41:46.419Z</time>
      </trkpt>
      <trkpt lat="38.66358" lon="-9.20072">
        <ele>96.01427459717</ele>
        <time>2019-08-23T21:41:51.057Z</time>
      </trkpt>
      <trkpt lat="38.66409" lon="-9.20085">
        <ele>95.60314178467</ele>
        <time>2019-08-23T21:41:55.706Z</time>
      </trkpt>
      <trkpt lat="38.66431" lon="-9.20081">
        <ele>95.53115081787</ele>
        <time>2019-08-23T21:42:00.360Z</time>
      </trkpt>
      <trkpt lat="38.66438" lon="-9.20065">
        <ele>96.37636566162</ele>
        <time>2019-08-23T21:42:05.017Z</time>
      </trkpt>
      <trkpt lat="38.66483" lon="-9.198">
        <ele>107.42786407471</ele>
        <time>2019-08-23T21:42:09.719Z</time>
      </trkpt>
      <trkpt lat="38.66486" lon="-9.19759">
        <ele>107.79685211182</ele>
        <time>2019-08-23T21:42:14.428Z</time>
      </trkpt>
      <trkpt lat="38.66485" lon="-9.19738">
        <ele>107.76085662842</ele>
        <time>2019-08-23T21:42:19.141Z</time>
      </trkpt>
      <trkpt lat="38.66479" lon="-9.19714">
        <ele>107.28903961182</ele>
        <time>2019-08-23T21:42:23.858Z</time>
      </trkpt>
      <trkpt lat="38.6648" lon="-9.19707">
        <ele>107.25304412842</ele>
        <time>2019-08-23T21:42:28.576Z</time>
      </trkpt>
      <trkpt lat="38.66485" lon="-9.19699">
        <ele>107.39701843262</ele>
        <time>2019-08-23T21:42:33.296Z</time>
      </trkpt>
      <trkpt lat="38.66489" lon="-9.19695">
        <ele>107.54100036621</ele>
        <time>2019-08-23T21:42:38.017Z</time>
      </trkpt>
      <trkpt lat="38.66498" lon="-9.19694">
        <ele>107.92858886719</ele>
        <time>2019-08-23T21:42:42.740Z</time>
      </trkpt>
      <trkpt lat="38.66504" lon="-9.19697">
        <ele>108.2848739624</ele>
        <time>2019-08-23T21:42:47.464Z</time>
      </trkpt>
      <trkpt lat="38.66508" lon="-9.19701">
        <ele>108.5248336792</ele>
        <time>2019-08-23T21:42:52.189Z</time>
      </trkpt>
      <trkpt lat="38.66531" lon="-9.19712">
        <ele>109.27771759033</ele>
        <time>2019-08-23T21:42:56.920Z</time>
      </trkpt>
      <trkpt lat="38.66624" lon="-9.1972">
        <ele>110.74532318115</ele>
        <time>2019-08-23T21:43:01.670Z</time>
      </trkpt>
      <trkpt lat="38.66631" lon="-9.19718">
        <ele>110.66133880615</ele>
        <time>2019-08-23T21:43:06.422Z</time>
      </trkpt>
      <trkpt lat="38.66649" lon="-9.19706">
        <ele>110.44537353516</ele>
        <time>2019-08-23T21:43:11.178Z</time>
      </trkpt>
      <trkpt lat="38.66634" lon="-9.19668">
        <ele>108.68898010254</ele>
        <time>2019-08-23T21:43:15.941Z</time>
      </trkpt>
      <trkpt lat="38.6662" lon="-9.19621">
        <ele>107.51336669922</ele>
        <time>2019-08-23T21:43:20.713Z</time>
      </trkpt>
      <trkpt lat="38.6661" lon="-9.19548">
        <ele>104.6032409668</ele>
        <time>2019-08-23T21:43:25.497Z</time>
      </trkpt>
      <trkpt lat="38.66613" lon="-9.19462">
        <ele>100.70004272461</ele>
        <time>2019-08-23T21:43:30.296Z</time>
      </trkpt>
      <trkpt lat="38.66609" lon="-9.19458">
        <ele>100.55606842041</ele>
        <time>2019-08-23T21:43:35.096Z</time>
      </trkpt>
      <trkpt lat="38.66603" lon="-9.19446">
        <ele>100.05214691162</ele>
        <time>2019-08-23T21:43:39.898Z</time>
      </trkpt>
      <trkpt lat="38.66603" lon="-9.19439">
        <ele>99.5244140625</ele>
        <time>2019-08-23T21:43:44.701Z</time>
      </trkpt>
      <trkpt lat="38.66628" lon="-9.19391">
        <ele>97.29278564453</ele>
        <time>2019-08-23T21:43:49.514Z</time>
      </trkpt>
      <trkpt lat="38.66641" lon="-9.19379">
        <ele>97.22079467773</ele>
        <time>2019-08-23T21:43:54.330Z</time>
      </trkpt>
      <trkpt lat="38.66648" lon="-9.19366">
        <ele>96.63289642334</ele>
        <time>2019-08-23T21:43:59.149Z</time>
      </trkpt>
      <trkpt lat="38.6665" lon="-9.19358">
        <ele>96.39973449707</ele>
        <time>2019-08-23T21:44:03.969Z</time>
      </trkpt>
      <trkpt lat="38.66647" lon="-9.19265">
        <ele>97.91212463379</ele>
        <time>2019-08-23T21:44:08.805Z</time>
      </trkpt>
      <trkpt lat="38.66641" lon="-9.19192">
        <ele>100.71807098389</ele>
        <time>2019-08-23T21:44:13.653Z</time>
      </trkpt>
      <trkpt lat="38.66693" lon="-9.19181">
        <ele>104.16439056396</ele>
        <time>2019-08-23T21:44:18.512Z</time>
      </trkpt>
      <trkpt lat="38.66689" lon="-9.19034">
        <ele>100.3843460083</ele>
        <time>2019-08-23T21:44:23.396Z</time>
      </trkpt>
      <trkpt lat="38.66689" lon="-9.18947">
        <ele>100.06909179688</ele>
        <time>2019-08-23T21:44:28.295Z</time>
      </trkpt>
      <trkpt lat="38.66703" lon="-9.18817">
        <ele>96.86789703369</ele>
        <time>2019-08-23T21:44:33.215Z</time>
      </trkpt>
      <trkpt lat="38.66723" lon="-9.1874">
        <ele>96.75550842285</ele>
        <time>2019-08-23T21:44:38.149Z</time>
      </trkpt>
      <trkpt lat="38.66667" lon="-9.1872">
        <ele>92.23846435547</ele>
        <time>2019-08-23T21:44:43.095Z</time>
      </trkpt>
      <trkpt lat="38.66678" lon="-9.18652">
        <ele>92.07218170166</ele>
        <time>2019-08-23T21:44:48.053Z</time>
      </trkpt>
      <trkpt lat="38.66702" lon="-9.18539">
        <ele>90.29977416992</ele>
        <time>2019-08-23T21:44:53.031Z</time>
      </trkpt>
      <trkpt lat="38.66716" lon="-9.18483">
        <ele>90.32232666016</ele>
        <time>2019-08-23T21:44:58.018Z</time>
      </trkpt>
      <trkpt lat="38.6674" lon="-9.18424">
        <ele>90.3731918335</ele>
        <time>2019-08-23T21:45:03.017Z</time>
      </trkpt>
      <trkpt lat="38.66748" lon="-9.18406">
        <ele>89.9172668457</ele>
        <time>2019-08-23T21:45:08.019Z</time>
      </trkpt>
      <trkpt lat="38.66808" lon="-9.18309">
        <ele>86.74976348877</ele>
        <time>2019-08-23T21:45:13.042Z</time>
      </trkpt>
      <trkpt lat="38.66838" lon="-9.18246">
        <ele>84.78182983398</ele>
        <time>2019-08-23T21:45:18.077Z</time>
      </trkpt>
      <trkpt lat="38.66897" lon="-9.18101">
        <ele>85.25228118896</ele>
        <time>2019-08-23T21:45:23.139Z</time>
      </trkpt>
      <trkpt lat="38.66911" lon="-9.18072">
        <ele>83.81251525879</ele>
        <time>2019-08-23T21:45:28.207Z</time>
      </trkpt>
      <trkpt lat="38.66919" lon="-9.1806">
        <ele>83.42858123779</ele>
        <time>2019-08-23T21:45:33.278Z</time>
      </trkpt>
      <trkpt lat="38.6694" lon="-9.18036">
        <ele>83.14063262939</ele>
        <time>2019-08-23T21:45:38.355Z</time>
      </trkpt>
      <trkpt lat="38.66966" lon="-9.17998">
        <ele>85.21633148193</ele>
        <time>2019-08-23T21:45:43.440Z</time>
      </trkpt>
      <trkpt lat="38.67032" lon="-9.17891">
        <ele>90.05710601807</ele>
        <time>2019-08-23T21:45:48.548Z</time>
      </trkpt>
      <trkpt lat="38.67077" lon="-9.17821">
        <ele>86.68832397461</ele>
        <time>2019-08-23T21:45:53.671Z</time>
      </trkpt>
      <trkpt lat="38.671" lon="-9.17796">
        <ele>84.93661499023</ele>
        <time>2019-08-23T21:45:58.800Z</time>
      </trkpt>
      <trkpt lat="38.67092" lon="-9.17785">
        <ele>84.23889160156</ele>
        <time>2019-08-23T21:46:03.932Z</time>
      </trkpt>
      <trkpt lat="38.67064" lon="-9.17721">
        <ele>77.66387176514</ele>
        <time>2019-08-23T21:46:09.076Z</time>
      </trkpt>
      <trkpt lat="38.67066" lon="-9.17704">
        <ele>75.39624786377</ele>
        <time>2019-08-23T21:46:14.223Z</time>
      </trkpt>
      <trkpt lat="38.67067" lon="-9.17699">
        <ele>74.80834960938</ele>
        <time>2019-08-23T21:46:19.371Z</time>
      </trkpt>
      <trkpt lat="38.67235" lon="-9.17486">
        <ele>76.083984375</ele>
        <time>2019-08-23T21:46:24.569Z</time>
      </trkpt>
      <trkpt lat="38.67239" lon="-9.17478">
        <ele>75.8440246582</ele>
        <time>2019-08-23T21:46:29.769Z</time>
      </trkpt>
      <trkpt lat="38.67243" lon="-9.1746">
        <ele>75.14993286133</ele>
        <time>2019-08-23T21:46:34.972Z</time>
      </trkpt>
      <trkpt lat="38.67244" lon="-9.17449">
        <ele>74.68201446533</ele>
        <time>2019-08-23T21:46:40.177Z</time>
      </trkpt>
      <trkpt lat="38.6724" lon="-9.17439">
        <ele>73.96213531494</ele>
        <time>2019-08-23T21:46:45.384Z</time>
      </trkpt>
      <trkpt lat="38.67239" lon="-9.1743">
        <ele>73.47021484375</ele>
        <time>2019-08-23T21:46:50.592Z</time>
      </trkpt>
      <trkpt lat="38.67241" lon="-9.1742">
        <ele>73.11027526855</ele>
        <time>2019-08-23T21:46:55.802Z</time>
      </trkpt>
      <trkpt lat="38.67244" lon="-9.17413">
        <ele>72.95429992676</ele>
        <time>2019-08-23T21:47:01.013Z</time>
      </trkpt>
      <trkpt lat="38.67253" lon="-9.17404">
        <ele>73.06228637695</ele>
        <time>2019-08-23T21:47:06.227Z</time>
      </trkpt>
      <trkpt lat="38.67262" lon="-9.17402">
        <ele>73.50621032715</ele>
        <time>2019-08-23T21:47:11.443Z</time>
      </trkpt>
      <trkpt lat="38.67269" lon="-9.17404">
        <ele>74.02212524414</ele>
        <time>2019-08-23T21:47:16.660Z</time>
      </trkpt>
      <trkpt lat="38.67275" lon="-9.17402">
        <ele>73.76309967041</ele>
        <time>2019-08-23T21:47:21.879Z</time>
      </trkpt>
      <trkpt lat="38.67282" lon="-9.17397">
        <ele>73.27117919922</ele>
        <time>2019-08-23T21:47:27.099Z</time>
      </trkpt>
      <trkpt lat="38.67286" lon="-9.17392">
        <ele>72.88724517822</ele>
        <time>2019-08-23T21:47:32.321Z</time>
      </trkpt>
      <trkpt lat="38.6729" lon="-9.17382">
        <ele>72.26334381104</ele>
        <time>2019-08-23T21:47:37.545Z</time>
      </trkpt>
      <trkpt lat="38.67307" lon="-9.17263">
        <ele>75.67891693115</ele>
        <time>2019-08-23T21:47:42.789Z</time>
      </trkpt>
      <trkpt lat="38.67327" lon="-9.17178">
        <ele>79.74011993408</ele>
        <time>2019-08-23T21:47:48.048Z</time>
      </trkpt>
      <trkpt lat="38.67334" lon="-9.17137">
        <ele>79.26020050049</ele>
        <time>2019-08-23T21:47:53.314Z</time>
      </trkpt>
      <trkpt lat="38.67328" lon="-9.17097">
        <ele>78.51416015625</ele>
        <time>2019-08-23T21:47:58.586Z</time>
      </trkpt>
      <trkpt lat="38.67321" lon="-9.17091">
        <ele>77.92626190186</ele>
        <time>2019-08-23T21:48:03.860Z</time>
      </trkpt>
      <trkpt lat="38.67321" lon="-9.17087">
        <ele>77.59031677246</ele>
        <time>2019-08-23T21:48:09.135Z</time>
      </trkpt>
      <trkpt lat="38.67323" lon="-9.17078">
        <ele>76.85843658447</ele>
        <time>2019-08-23T21:48:14.411Z</time>
      </trkpt>
      <trkpt lat="38.67334" lon="-9.1707">
        <ele>76.31852722168</ele>
        <time>2019-08-23T21:48:19.690Z</time>
      </trkpt>
      <trkpt lat="38.67341" lon="-9.17062">
        <ele>75.73062896729</ele>
        <time>2019-08-23T21:48:24.971Z</time>
      </trkpt>
      <trkpt lat="38.67344" lon="-9.17057">
        <ele>75.34668731689</ele>
        <time>2019-08-23T21:48:30.253Z</time>
      </trkpt>
      <trkpt lat="38.67378" lon="-9.16949">
        <ele>71.887550354</ele>
        <time>2019-08-23T21:48:35.555Z</time>
      </trkpt>
      <trkpt lat="38.6741" lon="-9.16881">
        <ele>75.46008300781</ele>
        <time>2019-08-23T21:48:40.870Z</time>
      </trkpt>
      <trkpt lat="38.67421" lon="-9.16863">
        <ele>76.8278503418</ele>
        <time>2019-08-23T21:48:46.189Z</time>
      </trkpt>
      <trkpt lat="38.67449" lon="-9.16818">
        <ele>78.11896514893</ele>
        <time>2019-08-23T21:48:51.517Z</time>
      </trkpt>
      <trkpt lat="38.67455" lon="-9.16814">
        <ele>78.09497070312</ele>
        <time>2019-08-23T21:48:56.847Z</time>
      </trkpt>
      <trkpt lat="38.6747" lon="-9.16797">
        <ele>77.86701202393</ele>
        <time>2019-08-23T21:49:02.181Z</time>
      </trkpt>
      <trkpt lat="38.67474" lon="-9.16794">
        <ele>77.84301757812</ele>
        <time>2019-08-23T21:49:07.516Z</time>
      </trkpt>
      <trkpt lat="38.67478" lon="-9.1678">
        <ele>77.55506134033</ele>
        <time>2019-08-23T21:49:12.854Z</time>
      </trkpt>
      <trkpt lat="38.67492" lon="-9.16764">
        <ele>76.84433746338</ele>
        <time>2019-08-23T21:49:18.196Z</time>
      </trkpt>
      <trkpt lat="38.67616" lon="-9.1661">
        <ele>71.67400360107</ele>
        <time>2019-08-23T21:49:23.574Z</time>
      </trkpt>
      <trkpt lat="38.67655" lon="-9.16558">
        <ele>70.0666809082</ele>
        <time>2019-08-23T21:49:28.964Z</time>
      </trkpt>
      <trkpt lat="38.67673" lon="-9.16537">
        <ele>69.23882293701</ele>
        <time>2019-08-23T21:49:34.360Z</time>
      </trkpt>
      <trkpt lat="38.67686" lon="-9.16517">
        <ele>68.99310302734</ele>
        <time>2019-08-23T21:49:39.760Z</time>
      </trkpt>
      <trkpt lat="38.67707" lon="-9.16483">
        <ele>69.49701690674</ele>
        <time>2019-08-23T21:49:45.167Z</time>
      </trkpt>
      <trkpt lat="38.6778" lon="-9.16304">
        <ele>64.68908691406</ele>
        <time>2019-08-23T21:49:50.608Z</time>
      </trkpt>
      <trkpt lat="38.67823" lon="-9.16211">
        <ele>62.88111114502</ele>
        <time>2019-08-23T21:49:56.067Z</time>
      </trkpt>
      <trkpt lat="38.67837" lon="-9.16187">
        <ele>62.5287322998</ele>
        <time>2019-08-23T21:50:01.531Z</time>
      </trkpt>
      <trkpt lat="38.6785" lon="-9.1617">
        <ele>62.6367149353</ele>
        <time>2019-08-23T21:50:06.999Z</time>
      </trkpt>
      <trkpt lat="38.67877" lon="-9.16141">
        <ele>63.80117034912</ele>
        <time>2019-08-23T21:50:12.475Z</time>
      </trkpt>
      <trkpt lat="38.67885" lon="-9.16124">
        <ele>64.07712554932</ele>
        <time>2019-08-23T21:50:17.954Z</time>
      </trkpt>
      <trkpt lat="38.67973" lon="-9.16044">
        <ele>66.27299499512</ele>
        <time>2019-08-23T21:50:23.456Z</time>
      </trkpt>
      <trkpt lat="38.67996" lon="-9.16027">
        <ele>66.41696929932</ele>
        <time>2019-08-23T21:50:28.964Z</time>
      </trkpt>
      <trkpt lat="38.68011" lon="-9.16019">
        <ele>66.58493804932</ele>
        <time>2019-08-23T21:50:34.475Z</time>
      </trkpt>
      <trkpt lat="38.68035" lon="-9.1601">
        <ele>65.84175872803</ele>
        <time>2019-08-23T21:50:39.991Z</time>
      </trkpt>
      <trkpt lat="38.68102" lon="-9.1599">
        <ele>65.9008026123</ele>
        <time>2019-08-23T21:50:45.522Z</time>
      </trkpt>
      <trkpt lat="38.68143" lon="-9.15964">
        <ele>64.56902313232</ele>
        <time>2019-08-23T21:50:51.063Z</time>
      </trkpt>
      <trkpt lat="38.68171" lon="-9.15944">
        <ele>63.42049789429</ele>
        <time>2019-08-23T21:50:56.611Z</time>
      </trkpt>
      <trkpt lat="38.68219" lon="-9.15896">
        <ele>61.71543502808</ele>
        <time>2019-08-23T21:51:02.172Z</time>
      </trkpt>
      <trkpt lat="38.68237" lon="-9.15871">
        <ele>60.61161804199</ele>
        <time>2019-08-23T21:51:07.738Z</time>
      </trkpt>
      <trkpt lat="38.68244" lon="-9.1586">
        <ele>60.13749694824</ele>
        <time>2019-08-23T21:51:13.307Z</time>
      </trkpt>
      <trkpt lat="38.68235" lon="-9.15842">
        <ele>59.27364349365</ele>
        <time>2019-08-23T21:51:18.879Z</time>
      </trkpt>
      <trkpt lat="38.68227" lon="-9.15818">
        <ele>58.32710647583</ele>
        <time>2019-08-23T21:51:24.456Z</time>
      </trkpt>
      <trkpt lat="38.68226" lon="-9.15788">
        <ele>56.77936553955</ele>
        <time>2019-08-23T21:51:30.038Z</time>
      </trkpt>
      <trkpt lat="38.68236" lon="-9.15695">
        <ele>54.98216247559</ele>
        <time>2019-08-23T21:51:35.635Z</time>
      </trkpt>
      <trkpt lat="38.68238" lon="-9.15671">
        <ele>54.07953262329</ele>
        <time>2019-08-23T21:51:41.236Z</time>
      </trkpt>
      <trkpt lat="38.68235" lon="-9.15633">
        <ele>52.04710388184</ele>
        <time>2019-08-23T21:51:46.844Z</time>
      </trkpt>
      <trkpt lat="38.6823" lon="-9.15606">
        <ele>50.59395980835</ele>
        <time>2019-08-23T21:51:52.456Z</time>
      </trkpt>
      <trkpt lat="38.68228" lon="-9.15585">
        <ele>49.87408065796</ele>
        <time>2019-08-23T21:51:58.072Z</time>
      </trkpt>
      <trkpt lat="38.6822" lon="-9.15543">
        <ele>48.82438278198</ele>
        <time>2019-08-23T21:52:03.695Z</time>
      </trkpt>
      <trkpt lat="38.6822" lon="-9.15526">
        <ele>48.73215866089</ele>
        <time>2019-08-23T21:52:09.321Z</time>
      </trkpt>
      <trkpt lat="38.68228" lon="-9.15364">
        <ele>40.57522583008</ele>
        <time>2019-08-23T21:52:14.974Z</time>
      </trkpt>
      <trkpt lat="38.68231" lon="-9.15335">
        <ele>39.29520797729</ele>
        <time>2019-08-23T21:52:20.632Z</time>
      </trkpt>
      <trkpt lat="38.68245" lon="-9.15297">
        <ele>37.63948440552</ele>
        <time>2019-08-23T21:52:26.297Z</time>
      </trkpt>
      <trkpt lat="38.68245" lon="-9.15288">
        <ele>37.20755767822</ele>
        <time>2019-08-23T21:52:31.964Z</time>
      </trkpt>
      <trkpt lat="38.68238" lon="-9.15259">
        <ele>36.17562484741</ele>
        <time>2019-08-23T21:52:37.636Z</time>
      </trkpt>
      <trkpt lat="38.68232" lon="-9.15258">
        <ele>36.07963943481</ele>
        <time>2019-08-23T21:52:43.309Z</time>
      </trkpt>
      <trkpt lat="38.68226" lon="-9.15251">
        <ele>35.83967971802</ele>
        <time>2019-08-23T21:52:48.984Z</time>
      </trkpt>
      <trkpt lat="38.68223" lon="-9.15244">
        <ele>35.63571548462</ele>
        <time>2019-08-23T21:52:54.660Z</time>
      </trkpt>
      <trkpt lat="38.68222" lon="-9.15238">
        <ele>35.47974014282</ele>
        <time>2019-08-23T21:53:00.337Z</time>
      </trkpt>
      <trkpt lat="38.68231" lon="-9.15223">
        <ele>35.22778320312</ele>
        <time>2019-08-23T21:53:06.017Z</time>
      </trkpt>
      <trkpt lat="38.68253" lon="-9.15198">
        <ele>34.89183807373</ele>
        <time>2019-08-23T21:53:11.703Z</time>
      </trkpt>
      <trkpt lat="38.68259" lon="-9.15194">
        <ele>34.8731880188</ele>
        <time>2019-08-23T21:53:17.391Z</time>
      </trkpt>
      <trkpt lat="38.68269" lon="-9.15204">
        <ele>35.22778320312</ele>
        <time>2019-08-23T21:53:23.082Z</time>
      </trkpt>
      <trkpt lat="38.68274" lon="-9.15213">
        <ele>35.45236206055</ele>
        <time>2019-08-23T21:53:28.774Z</time>
      </trkpt>
      <trkpt lat="38.68273" lon="-9.15215">
        <ele>35.50035476685</ele>
        <time>2019-08-23T21:53:34.467Z</time>
      </trkpt>
      <trkpt lat="38.68284" lon="-9.15223">
        <ele>35.69232177734</ele>
        <time>2019-08-23T21:53:40.163Z</time>
      </trkpt>
      <trkpt lat="38.6836" lon="-9.15174">
        <ele>35.04385757446</ele>
        <time>2019-08-23T21:53:45.877Z</time>
      </trkpt>
      <trkpt lat="38.68402" lon="-9.15142">
        <ele>29.90871429443</ele>
        <time>2019-08-23T21:53:51.601Z</time>
      </trkpt>
      <trkpt lat="38.68469" lon="-9.15067">
        <ele>24.58324050903</ele>
        <time>2019-08-23T21:53:57.344Z</time>
      </trkpt>
      <trkpt lat="38.68479" lon="-9.15085">
        <ele>24.25078201294</ele>
        <time>2019-08-23T21:54:03.091Z</time>
      </trkpt>
      <trkpt lat="38.68492" lon="-9.15098">
        <ele>24.71870422363</ele>
        <time>2019-08-23T21:54:08.841Z</time>
      </trkpt>
      <trkpt lat="38.68518" lon="-9.15106">
        <ele>24.79069328308</ele>
        <time>2019-08-23T21:54:14.597Z</time>
      </trkpt>
      <trkpt lat="38.68526" lon="-9.15075">
        <ele>23.28182792664</ele>
        <time>2019-08-23T21:54:20.359Z</time>
      </trkpt>
      <trkpt lat="38.68545" lon="-9.15081">
        <ele>23.56978034973</ele>
        <time>2019-08-23T21:54:26.125Z</time>
      </trkpt>
      <trkpt lat="38.68555" lon="-9.15081">
        <ele>23.70029640198</ele>
        <time>2019-08-23T21:54:31.893Z</time>
      </trkpt>
      <trkpt lat="38.68566" lon="-9.15077">
        <ele>23.67630004883</ele>
        <time>2019-08-23T21:54:37.663Z</time>
      </trkpt>
      <trkpt lat="38.68577" lon="-9.15071">
        <ele>23.50832939148</ele>
        <time>2019-08-23T21:54:43.436Z</time>
      </trkpt>
      <trkpt lat="38.68599" lon="-9.15047">
        <ele>22.30852890015</ele>
        <time>2019-08-23T21:54:49.215Z</time>
      </trkpt>
      <trkpt lat="38.6862" lon="-9.15022">
        <ele>21.62079429626</ele>
        <time>2019-08-23T21:54:55.000Z</time>
      </trkpt>
      <trkpt lat="38.68652" lon="-9.14971">
        <ele>20.23194885254</ele>
        <time>2019-08-23T21:55:00.796Z</time>
      </trkpt>
      <trkpt lat="38.68665" lon="-9.14957">
        <ele>20.05197906494</ele>
        <time>2019-08-23T21:55:06.596Z</time>
      </trkpt>
      <trkpt lat="38.68687" lon="-9.14939">
        <ele>19.64125061035</ele>
        <time>2019-08-23T21:55:12.401Z</time>
      </trkpt>
      <trkpt lat="38.6873" lon="-9.149">
        <ele>13.17432785034</ele>
        <time>2019-08-23T21:55:18.217Z</time>
      </trkpt>
      <trkpt lat="38.68745" lon="-9.14878">
        <ele>10.41478729248</ele>
        <time>2019-08-23T21:55:24.038Z</time>
      </trkpt>
      <trkpt lat="38.68759" lon="-9.14853">
        <ele>7.66436052322</ele>
        <time>2019-08-23T21:55:29.864Z</time>
      </trkpt>
      <trkpt lat="38.68739" lon="-9.14829">
        <ele>8.43223285675</ele>
        <time>2019-08-23T21:55:35.696Z</time>
      </trkpt>
      <trkpt lat="38.68752" lon="-9.14809">
        <ele>6.22460079193</ele>
        <time>2019-08-23T21:55:41.533Z</time>
      </trkpt>
      <trkpt lat="38.68751" lon="-9.14809">
        <ele>6.32058477402</ele>
        <time>2019-08-23T21:55:47.370Z</time>
      </trkpt>
      <trkpt lat="38.68753" lon="-9.14807">
        <ele>6.03263282776</ele>
        <time>2019-08-23T21:55:53.207Z</time>
      </trkpt>
      <trkpt lat="38.68739" lon="-9.14798">
        <ele>5.96413087845</ele>
        <time>2019-08-23T21:55:59.048Z</time>
      </trkpt>
      <trkpt lat="38.68722" lon="-9.14789">
        <ele>4.66834688187</ele>
        <time>2019-08-23T21:56:04.893Z</time>
      </trkpt>
      <trkpt lat="38.68716" lon="-9.14788">
        <ele>4.52437067032</ele>
        <time>2019-08-23T21:56:10.739Z</time>
      </trkpt>
      <trkpt lat="38.68712" lon="-9.14786">
        <ele>4.23641872406</ele>
        <time>2019-08-23T21:56:16.586Z</time>
      </trkpt>
      <trkpt lat="38.687" lon="-9.14763">
        <ele>2.78549790382</ele>
        <time>2019-08-23T21:56:22.438Z</time>
      </trkpt>
      <trkpt lat="38.68676" lon="-9.14741">
        <ele>0.94105309248</ele>
        <time>2019-08-23T21:56:28.296Z</time>
      </trkpt>
      <trkpt lat="38.6866" lon="-9.14734">
        <ele>0.71309107542</ele>
        <time>2019-08-23T21:56:34.157Z</time>
      </trkpt>
      <trkpt lat="38.68595" lon="-9.14694">
        <ele>-4.70663785934</ele>
        <time>2019-08-23T21:56:40.034Z</time>
      </trkpt>
      <trkpt lat="38.68575" lon="-9.14686">
        <ele>-3.79478979111</ele>
        <time>2019-08-23T21:56:45.915Z</time>
      </trkpt>
      <trkpt lat="38.68562" lon="-9.14684">
        <ele>-3.27887558937</ele>
        <time>2019-08-23T21:56:51.799Z</time>
      </trkpt>
      <trkpt lat="38.68547" lon="-9.14686">
        <ele>-2.78695774078</ele>
        <time>2019-08-23T21:56:57.686Z</time>
      </trkpt>
      <trkpt lat="38.68525" lon="-9.14692">
        <ele>-2.13906574249</ele>
        <time>2019-08-23T21:57:03.578Z</time>
      </trkpt>
      <trkpt lat="38.68514" lon="-9.147">
        <ele>-1.07851493359</ele>
        <time>2019-08-23T21:57:09.473Z</time>
      </trkpt>
      <trkpt lat="38.68507" lon="-9.14715">
        <ele>1.06912708282</ele>
        <time>2019-08-23T21:57:15.371Z</time>
      </trkpt>
      <trkpt lat="38.68503" lon="-9.1473">
        <ele>3.14478111267</ele>
        <time>2019-08-23T21:57:21.271Z</time>
      </trkpt>
      <trkpt lat="38.68504" lon="-9.1473">
        <ele>3.12078523636</ele>
        <time>2019-08-23T21:57:27.172Z</time>
      </trkpt>
      <trkpt lat="38.68507" lon="-9.1472">
        <ele>1.72901713848</ele>
        <time>2019-08-23T21:57:33.074Z</time>
      </trkpt>
      <trkpt lat="38.68486" lon="-9.14716">
        <ele>1.98876869678</ele>
        <time>2019-08-23T21:57:38.981Z</time>
      </trkpt>
      <trkpt lat="38.68486" lon="-9.14711">
        <ele>1.44885873795</ele>
        <time>2019-08-23T21:57:44.889Z</time>
      </trkpt>
      <trkpt lat="38.68484" lon="-9.14706">
        <ele>1.00493276119</ele>
        <time>2019-08-23T21:57:50.798Z</time>
      </trkpt>
      <trkpt lat="38.68472" lon="-9.14704">
        <ele>1.36487269402</ele>
        <time>2019-08-23T21:57:56.709Z</time>
      </trkpt>
      <trkpt lat="38.68473" lon="-9.14698">
        <ele>0.66898870468</ele>
        <time>2019-08-23T21:58:02.621Z</time>
      </trkpt>
      <trkpt lat="38.68461" lon="-9.14696">
        <ele>1.02892875671</ele>
        <time>2019-08-23T21:58:08.536Z</time>
      </trkpt>
      <trkpt lat="38.68273" lon="-9.14816">
        <ele>10.80311393738</ele>
        <time>2019-08-23T21:58:14.496Z</time>
      </trkpt>
      <trkpt lat="38.6809" lon="-9.1493">
        <ele>18.95314216614</ele>
        <time>2019-08-23T21:58:20.499Z</time>
      </trkpt>
      <trkpt lat="38.67596" lon="-9.15203">
        <ele>4.17499732971</ele>
        <time>2019-08-23T21:58:26.617Z</time>
      </trkpt>
      <trkpt lat="38.67522" lon="-9.15253">
        <ele>4.7061009407</ele>
        <time>2019-08-23T21:58:32.753Z</time>
      </trkpt>
      <trkpt lat="38.67458" lon="-9.1531">
        <ele>5.08196210861</ele>
        <time>2019-08-23T21:58:38.905Z</time>
      </trkpt>
      <trkpt lat="38.67369" lon="-9.15411">
        <ele>5.59139966965</ele>
        <time>2019-08-23T21:58:45.083Z</time>
      </trkpt>
      <trkpt lat="38.67334" lon="-9.15453">
        <ele>5.34778928757</ele>
        <time>2019-08-23T21:58:51.271Z</time>
      </trkpt>
      <trkpt lat="38.6733" lon="-9.15465">
        <ele>5.29979705811</ele>
        <time>2019-08-23T21:58:57.461Z</time>
      </trkpt>
      <trkpt lat="38.67326" lon="-9.1546">
        <ele>5.45577096939</ele>
        <time>2019-08-23T21:59:03.652Z</time>
      </trkpt>
      <trkpt lat="38.67316" lon="-9.1546">
        <ele>5.69573116302</ele>
        <time>2019-08-23T21:59:09.846Z</time>
      </trkpt>
      <trkpt lat="38.67106" lon="-9.15706">
        <ele>9.18855381012</ele>
        <time>2019-08-23T21:59:16.100Z</time>
      </trkpt>
      <trkpt lat="38.6698" lon="-9.15842">
        <ele>11.84422302246</ele>
        <time>2019-08-23T21:59:22.390Z</time>
      </trkpt>
      <trkpt lat="38.66975" lon="-9.15842">
        <ele>12.20416355133</ele>
        <time>2019-08-23T21:59:28.681Z</time>
      </trkpt>
      <trkpt lat="38.66951" lon="-9.15863">
        <ele>13.88211250305</ele>
        <time>2019-08-23T21:59:34.978Z</time>
      </trkpt>
      <trkpt lat="38.66944" lon="-9.15886">
        <ele>13.83412075043</ele>
        <time>2019-08-23T21:59:41.279Z</time>
      </trkpt>
      <trkpt lat="38.66948" lon="-9.15881">
        <ele>13.6661491394</ele>
        <time>2019-08-23T21:59:47.581Z</time>
      </trkpt>
      <trkpt lat="38.66941" lon="-9.1586">
        <ele>14.65175533295</ele>
        <time>2019-08-23T21:59:53.887Z</time>
      </trkpt>
      <trkpt lat="38.66934" lon="-9.15851">
        <ele>14.95874118805</ele>
        <time>2019-08-23T22:00:00.195Z</time>
      </trkpt>
      <trkpt lat="38.66865" lon="-9.15798">
        <ele>18.02402496338</ele>
        <time>2019-08-23T22:00:06.520Z</time>
      </trkpt>
      <trkpt lat="38.668" lon="-9.15752">
        <ele>21.84160614014</ele>
        <time>2019-08-23T22:00:12.861Z</time>
      </trkpt>
      <trkpt lat="38.66753" lon="-9.15723">
        <ele>26.15001678467</ele>
        <time>2019-08-23T22:00:19.213Z</time>
      </trkpt>
      <trkpt lat="38.66567" lon="-9.15607">
        <ele>42.95163726807</ele>
        <time>2019-08-23T22:00:25.609Z</time>
      </trkpt>
      <trkpt lat="38.66534" lon="-9.15589">
        <ele>44</ele>
        <time>2019-08-23T22:00:32.013Z</time>
      </trkpt>
      <trkpt lat="38.6639" lon="-9.15563">
        <ele>46.69930267334</ele>
        <time>2019-08-23T22:00:38.448Z</time>
      </trkpt>
      <trkpt lat="38.66382" lon="-9.15563">
        <ele>47.46717453003</ele>
        <time>2019-08-23T22:00:44.885Z</time>
      </trkpt>
      <trkpt lat="38.66307" lon="-9.15577">
        <ele>52.97512435913</ele>
        <time>2019-08-23T22:00:51.338Z</time>
      </trkpt>
      <trkpt lat="38.66278" lon="-9.15576">
        <ele>55.59161376953</ele>
        <time>2019-08-23T22:00:57.797Z</time>
      </trkpt>
      <trkpt lat="38.66267" lon="-9.15573">
        <ele>56.397315979</ele>
        <time>2019-08-23T22:01:04.259Z</time>
      </trkpt>
      <trkpt lat="38.66252" lon="-9.15565">
        <ele>56.13336181641</ele>
        <time>2019-08-23T22:01:10.724Z</time>
      </trkpt>
      <trkpt lat="38.66189" lon="-9.15507">
        <ele>55.15655136108</ele>
        <time>2019-08-23T22:01:17.206Z</time>
      </trkpt>
      <trkpt lat="38.66166" lon="-9.15497">
        <ele>54.5344543457</ele>
        <time>2019-08-23T22:01:23.693Z</time>
      </trkpt>
      <trkpt lat="38.65938" lon="-9.1546">
        <ele>52.59310913086</ele>
        <time>2019-08-23T22:01:30.229Z</time>
      </trkpt>
      <trkpt lat="38.65887" lon="-9.15446">
        <ele>53.76355361938</ele>
        <time>2019-08-23T22:01:36.776Z</time>
      </trkpt>
      <trkpt lat="38.65853" lon="-9.15433">
        <ele>54.45031356812</ele>
        <time>2019-08-23T22:01:43.331Z</time>
      </trkpt>
      <trkpt lat="38.65823" lon="-9.15551">
        <ele>53.10368347168</ele>
        <time>2019-08-23T22:01:49.906Z</time>
      </trkpt>
      <trkpt lat="38.65694" lon="-9.15461">
        <ele>58.20168685913</ele>
        <time>2019-08-23T22:01:56.513Z</time>
      </trkpt>
      <trkpt lat="38.65663" lon="-9.15448">
        <ele>57.2652130127</ele>
        <time>2019-08-23T22:02:03.127Z</time>
      </trkpt>
      <trkpt lat="38.65601" lon="-9.1543">
        <ele>55.11241531372</ele>
        <time>2019-08-23T22:02:09.754Z</time>
      </trkpt>
      <trkpt lat="38.65531" lon="-9.15413">
        <ele>52.56344223022</ele>
        <time>2019-08-23T22:02:16.396Z</time>
      </trkpt>
      <trkpt lat="38.65516" lon="-9.15413">
        <ele>51.84356307983</ele>
        <time>2019-08-23T22:02:23.042Z</time>
      </trkpt>
      <trkpt lat="38.65423" lon="-9.15392">
        <ele>50.34978485107</ele>
        <time>2019-08-23T22:02:29.708Z</time>
      </trkpt>
      <trkpt lat="38.65424" lon="-9.15375">
        <ele>51.17764663696</ele>
        <time>2019-08-23T22:02:36.377Z</time>
      </trkpt>
      <trkpt lat="38.65421" lon="-9.15353">
        <ele>51.642162323</ele>
        <time>2019-08-23T22:02:43.049Z</time>
      </trkpt>
      <trkpt lat="38.65179" lon="-9.15186">
        <ele>45.4593963623</ele>
        <time>2019-08-23T22:02:49.780Z</time>
      </trkpt>
      <trkpt lat="38.65148" lon="-9.15171">
        <ele>43.80367279053</ele>
        <time>2019-08-23T22:02:56.518Z</time>
      </trkpt>
      <trkpt lat="38.65119" lon="-9.15168">
        <ele>43.11604309082</ele>
        <time>2019-08-23T22:03:03.262Z</time>
      </trkpt>
      <trkpt lat="38.65084" lon="-9.15157">
        <ele>44.33469009399</ele>
        <time>2019-08-23T22:03:10.014Z</time>
      </trkpt>
      <trkpt lat="38.65074" lon="-9.15158">
        <ele>44.80261230469</ele>
        <time>2019-08-23T22:03:16.768Z</time>
      </trkpt>
      <trkpt lat="38.6507" lon="-9.15161">
        <ele>44.95858764648</ele>
        <time>2019-08-23T22:03:23.523Z</time>
      </trkpt>
      <trkpt lat="38.65065" lon="-9.1516">
        <ele>45.21054458618</ele>
        <time>2019-08-23T22:03:30.279Z</time>
      </trkpt>
      <trkpt lat="38.65061" lon="-9.15157">
        <ele>45.43850708008</ele>
        <time>2019-08-23T22:03:37.036Z</time>
      </trkpt>
      <trkpt lat="38.65059" lon="-9.15147">
        <ele>46.0060005188</ele>
        <time>2019-08-23T22:03:43.795Z</time>
      </trkpt>
      <trkpt lat="38.64976" lon="-9.15123">
        <ele>50.00682830811</ele>
        <time>2019-08-23T22:03:50.572Z</time>
      </trkpt>
      <trkpt lat="38.64909" lon="-9.151">
        <ele>46.87215042114</ele>
        <time>2019-08-23T22:03:57.364Z</time>
      </trkpt>
      <trkpt lat="38.64773" lon="-9.15058">
        <ele>38.80777359009</ele>
        <time>2019-08-23T22:04:04.186Z</time>
      </trkpt>
      <trkpt lat="38.64761" lon="-9.15053">
        <ele>39.37329864502</ele>
        <time>2019-08-23T22:04:11.010Z</time>
      </trkpt>
      <trkpt lat="38.64714" lon="-9.1502">
        <ele>39.46340179443</ele>
        <time>2019-08-23T22:04:17.846Z</time>
      </trkpt>
      <trkpt lat="38.64682" lon="-9.14984">
        <ele>36.64462280273</ele>
        <time>2019-08-23T22:04:24.691Z</time>
      </trkpt>
      <trkpt lat="38.64666" lon="-9.14957">
        <ele>33.57567214966</ele>
        <time>2019-08-23T22:04:31.542Z</time>
      </trkpt>
      <trkpt lat="38.64652" lon="-9.14931">
        <ele>29.58977508545</ele>
        <time>2019-08-23T22:04:38.398Z</time>
      </trkpt>
      <trkpt lat="38.64637" lon="-9.14893">
        <ele>24.96193122864</ele>
        <time>2019-08-23T22:04:45.261Z</time>
      </trkpt>
      <trkpt lat="38.64617" lon="-9.14905">
        <ele>25.29787635803</ele>
        <time>2019-08-23T22:04:52.129Z</time>
      </trkpt>
      <trkpt lat="38.64607" lon="-9.14886">
        <ele>24.2660484314</ele>
        <time>2019-08-23T22:04:59.000Z</time>
      </trkpt>
      <trkpt lat="38.64596" lon="-9.14874">
        <ele>23.40362548828</ele>
        <time>2019-08-23T22:05:05.875Z</time>
      </trkpt>
      <trkpt lat="38.6458" lon="-9.14864">
        <ele>22.11744308472</ele>
        <time>2019-08-23T22:05:12.753Z</time>
      </trkpt>
      <trkpt lat="38.64568" lon="-9.1486">
        <ele>21.30157852173</ele>
        <time>2019-08-23T22:05:19.634Z</time>
      </trkpt>
      <trkpt lat="38.64554" lon="-9.14859">
        <ele>20.56970024109</ele>
        <time>2019-08-23T22:05:26.518Z</time>
      </trkpt>
      <trkpt lat="38.64518" lon="-9.14874">
        <ele>19.70249557495</ele>
        <time>2019-08-23T22:05:33.410Z</time>
      </trkpt>
      <trkpt lat="38.64483" lon="-9.14911">
        <ele>18.98261642456</ele>
        <time>2019-08-23T22:05:40.312Z</time>
      </trkpt>
      <trkpt lat="38.64468" lon="-9.14937">
        <ele>19.28256607056</ele>
        <time>2019-08-23T22:05:47.219Z</time>
      </trkpt>
      <trkpt lat="38.64381" lon="-9.14898">
        <ele>10.18936347961</ele>
        <time>2019-08-23T22:05:54.146Z</time>
      </trkpt>
      <trkpt lat="38.6435" lon="-9.14881">
        <ele>6.74115514755</ele>
        <time>2019-08-23T22:06:01.080Z</time>
      </trkpt>
      <trkpt lat="38.64266" lon="-9.14822">
        <ele>2.49835276604</ele>
        <time>2019-08-23T22:06:08.034Z</time>
      </trkpt>
      <trkpt lat="38.64248" lon="-9.14798">
        <ele>2</ele>
        <time>2019-08-23T22:06:14.994Z</time>
      </trkpt>
      <trkpt lat="38.64234" lon="-9.14808">
        <ele>2</ele>
        <time>2019-08-23T22:06:21.957Z</time>
      </trkpt>
      <trkpt lat="38.64225" lon="-9.14828">
        <ele>2.07842278481</ele>
        <time>2019-08-23T22:06:28.924Z</time>
      </trkpt>
      <trkpt lat="38.64223" lon="-9.14843">
        <ele>2.23439669609</ele>
        <time>2019-08-23T22:06:35.894Z</time>
      </trkpt>
      <trkpt lat="38.64226" lon="-9.14861">
        <ele>2.48923969269</ele>
        <time>2019-08-23T22:06:42.867Z</time>
      </trkpt>
      <trkpt lat="38.64231" lon="-9.14872">
        <ele>2.81318569183</ele>
        <time>2019-08-23T22:06:49.842Z</time>
      </trkpt>
      <trkpt lat="38.64232" lon="-9.14883">
        <ele>3.08913969994</ele>
        <time>2019-08-23T22:06:56.819Z</time>
      </trkpt>
      <trkpt lat="38.64232" lon="-9.14893">
        <ele>3.32909965515</ele>
        <time>2019-08-23T22:07:03.798Z</time>
      </trkpt>
      <trkpt lat="38.64229" lon="-9.14902">
        <ele>3.46626925468</ele>
        <time>2019-08-23T22:07:10.778Z</time>
      </trkpt>
      <trkpt lat="38.64221" lon="-9.14915">
        <ele>3.50226330757</ele>
        <time>2019-08-23T22:07:17.761Z</time>
      </trkpt>
      <trkpt lat="38.64211" lon="-9.14921">
        <ele>3.67023539543</ele>
        <time>2019-08-23T22:07:24.746Z</time>
      </trkpt>
      <trkpt lat="38.64205" lon="-9.14922">
        <ele>3.70103764534</ele>
        <time>2019-08-23T22:07:31.733Z</time>
      </trkpt>
      <trkpt lat="38.64195" lon="-9.1492">
        <ele>3.5330657959</ele>
        <time>2019-08-23T22:07:38.722Z</time>
      </trkpt>
      <trkpt lat="38.64186" lon="-9.14915">
        <ele>3.30510377884</ele>
        <time>2019-08-23T22:07:45.713Z</time>
      </trkpt>
      <trkpt lat="38.64179" lon="-9.14905">
        <ele>3.22246623039</ele>
        <time>2019-08-23T22:07:52.706Z</time>
      </trkpt>
      <trkpt lat="38.64175" lon="-9.14893">
        <ele>3.03049826622</ele>
        <time>2019-08-23T22:07:59.701Z</time>
      </trkpt>
      <trkpt lat="38.64175" lon="-9.14884">
        <ele>2.81453418732</ele>
        <time>2019-08-23T22:08:06.698Z</time>
      </trkpt>
      <trkpt lat="38.64087" lon="-9.14885">
        <ele>5.29083681107</ele>
        <time>2019-08-23T22:08:13.714Z</time>
      </trkpt>
      <trkpt lat="38.64064" lon="-9.14889">
        <ele>5.4602060318</ele>
        <time>2019-08-23T22:08:20.735Z</time>
      </trkpt>
      <trkpt lat="38.64052" lon="-9.14895">
        <ele>5.60418224335</ele>
        <time>2019-08-23T22:08:27.758Z</time>
      </trkpt>
      <trkpt lat="38.64033" lon="-9.14912">
        <ele>5.83214426041</ele>
        <time>2019-08-23T22:08:34.786Z</time>
      </trkpt>
      <trkpt lat="38.64027" lon="-9.14924">
        <ele>5.90413236618</ele>
        <time>2019-08-23T22:08:41.817Z</time>
      </trkpt>
      <trkpt lat="38.64012" lon="-9.14918">
        <ele>6.16820430756</ele>
        <time>2019-08-23T22:08:48.851Z</time>
      </trkpt>
      <trkpt lat="38.63997" lon="-9.14905">
        <ele>6.52814435959</ele>
        <time>2019-08-23T22:08:55.889Z</time>
      </trkpt>
      <trkpt lat="38.63983" lon="-9.14903">
        <ele>6.86408853531</ele>
        <time>2019-08-23T22:09:02.930Z</time>
      </trkpt>
      <trkpt lat="38.63968" lon="-9.14892">
        <ele>7.69841098785</ele>
        <time>2019-08-23T22:09:09.975Z</time>
      </trkpt>
      <trkpt lat="38.63954" lon="-9.14871">
        <ele>8.87421512604</ele>
        <time>2019-08-23T22:09:17.024Z</time>
      </trkpt>
      <trkpt lat="38.63944" lon="-9.14845">
        <ele>9.79993247986</ele>
        <time>2019-08-23T22:09:24.078Z</time>
      </trkpt>
      <trkpt lat="38.63946" lon="-9.14825">
        <ele>9.75194072723</ele>
        <time>2019-08-23T22:09:31.135Z</time>
      </trkpt>
      <trkpt lat="38.63952" lon="-9.14807">
        <ele>9.60796451569</ele>
        <time>2019-08-23T22:09:38.196Z</time>
      </trkpt>
      <trkpt lat="38.63947" lon="-9.14801">
        <ele>9.72794437408</ele>
        <time>2019-08-23T22:09:45.258Z</time>
      </trkpt>
      <trkpt lat="38.63936" lon="-9.1479">
        <ele>9.99190044403</ele>
        <time>2019-08-23T22:09:52.323Z</time>
      </trkpt>
      <trkpt lat="38.63921" lon="-9.14785">
        <ele>10.26695728302</ele>
        <time>2019-08-23T22:09:59.391Z</time>
      </trkpt>
      <trkpt lat="38.63895" lon="-9.14768">
        <ele>10.26200962067</ele>
        <time>2019-08-23T22:10:06.466Z</time>
      </trkpt>
      <trkpt lat="38.63888" lon="-9.14754">
        <ele>10.01005172729</ele>
        <time>2019-08-23T22:10:13.543Z</time>
      </trkpt>
      <trkpt lat="38.63875" lon="-9.14738">
        <ele>9.58139228821</ele>
        <time>2019-08-23T22:10:20.624Z</time>
      </trkpt>
      <trkpt lat="38.63872" lon="-9.14725">
        <ele>9.11347103119</ele>
        <time>2019-08-23T22:10:27.708Z</time>
      </trkpt>
      <trkpt lat="38.63863" lon="-9.1471">
        <ele>8.57356071472</ele>
        <time>2019-08-23T22:10:34.795Z</time>
      </trkpt>
      <trkpt lat="38.6385" lon="-9.14694">
        <ele>8.16666984558</ele>
        <time>2019-08-23T22:10:41.886Z</time>
      </trkpt>
      <trkpt lat="38.63832" lon="-9.14664">
        <ele>9.46245384216</ele>
        <time>2019-08-23T22:10:48.983Z</time>
      </trkpt>
      <trkpt lat="38.63819" lon="-9.14656">
        <ele>10.39829730988</ele>
        <time>2019-08-23T22:10:56.083Z</time>
      </trkpt>
      <trkpt lat="38.6381" lon="-9.14656">
        <ele>11.04618930817</ele>
        <time>2019-08-23T22:11:03.185Z</time>
      </trkpt>
      <trkpt lat="38.63789" lon="-9.14646">
        <ele>11.54891300201</ele>
        <time>2019-08-23T22:11:10.292Z</time>
      </trkpt>
      <trkpt lat="38.63614" lon="-9.14448">
        <ele>13.0501499176</ele>
        <time>2019-08-23T22:11:17.449Z</time>
      </trkpt>
      <trkpt lat="38.6356" lon="-9.1443">
        <ele>7.59638738632</ele>
        <time>2019-08-23T22:11:24.617Z</time>
      </trkpt>
      <trkpt lat="38.63549" lon="-9.1442">
        <ele>5.58072328568</ele>
        <time>2019-08-23T22:11:31.788Z</time>
      </trkpt>
      <trkpt lat="38.63523" lon="-9.14412">
        <ele>4.32931661606</ele>
        <time>2019-08-23T22:11:38.965Z</time>
      </trkpt>
      <trkpt lat="38.63497" lon="-9.1439">
        <ele>5.01901531219</ele>
        <time>2019-08-23T22:11:46.149Z</time>
      </trkpt>
      <trkpt lat="38.63486" lon="-9.14383">
        <ele>5.38372373581</ele>
        <time>2019-08-23T22:11:53.335Z</time>
      </trkpt>
      <trkpt lat="38.63477" lon="-9.14389">
        <ele>6.0316157341</ele>
        <time>2019-08-23T22:12:00.523Z</time>
      </trkpt>
      <trkpt lat="38.6311" lon="-9.13702">
        <ele>21.46850776672</ele>
        <time>2019-08-23T22:12:07.850Z</time>
      </trkpt>
      <trkpt lat="38.63105" lon="-9.13707">
        <ele>21.16855812073</ele>
        <time>2019-08-23T22:12:15.179Z</time>
      </trkpt>
      <trkpt lat="38.63106" lon="-9.1372">
        <ele>21.22854804993</ele>
        <time>2019-08-23T22:12:22.510Z</time>
      </trkpt>
      <trkpt lat="38.63114" lon="-9.13734">
        <ele>21.70846748352</ele>
        <time>2019-08-23T22:12:29.844Z</time>
      </trkpt>
      <trkpt lat="38.63111" lon="-9.13736">
        <ele>21.52849769592</ele>
        <time>2019-08-23T22:12:37.179Z</time>
      </trkpt>
      <trkpt lat="38.62977" lon="-9.13482">
        <ele>17.00406455994</ele>
        <time>2019-08-23T22:12:44.565Z</time>
      </trkpt>
      <trkpt lat="38.62882" lon="-9.13312">
        <ele>16.59745788574</ele>
        <time>2019-08-23T22:12:51.986Z</time>
      </trkpt>
      <trkpt lat="38.62821" lon="-9.13226">
        <ele>18.58897781372</ele>
        <time>2019-08-23T22:12:59.426Z</time>
      </trkpt>
      <trkpt lat="38.62631" lon="-9.12978">
        <ele>30.07472991943</ele>
        <time>2019-08-23T22:13:06.924Z</time>
      </trkpt>
      <trkpt lat="38.62625" lon="-9.12975">
        <ele>30.32668876648</ele>
        <time>2019-08-23T22:13:14.424Z</time>
      </trkpt>
      <trkpt lat="38.62513" lon="-9.12831">
        <ele>36.51626586914</ele>
        <time>2019-08-23T22:13:21.957Z</time>
      </trkpt>
      <trkpt lat="38.62483" lon="-9.12802">
        <ele>34.51685714722</ele>
        <time>2019-08-23T22:13:29.498Z</time>
      </trkpt>
      <trkpt lat="38.62373" lon="-9.1265">
        <ele>39.41698074341</ele>
        <time>2019-08-23T22:13:37.074Z</time>
      </trkpt>
      <trkpt lat="38.62347" lon="-9.1261">
        <ele>44.00922775269</ele>
        <time>2019-08-23T22:13:44.659Z</time>
      </trkpt>
      <trkpt lat="38.62312" lon="-9.12528">
        <ele>43.6311378479</ele>
        <time>2019-08-23T22:13:52.259Z</time>
      </trkpt>
      <trkpt lat="38.62268" lon="-9.12409">
        <ele>39.95692443848</ele>
        <time>2019-08-23T22:13:59.881Z</time>
      </trkpt>
      <trkpt lat="38.62244" lon="-9.12335">
        <ele>38.50967025757</ele>
        <time>2019-08-23T22:14:07.517Z</time>
      </trkpt>
      <trkpt lat="38.62189" lon="-9.12185">
        <ele>31.93977928162</ele>
        <time>2019-08-23T22:14:15.180Z</time>
      </trkpt>
      <trkpt lat="38.62171" lon="-9.12142">
        <ele>31.72516441345</ele>
        <time>2019-08-23T22:14:22.852Z</time>
      </trkpt>
      <trkpt lat="38.62159" lon="-9.12124">
        <ele>32.10123062134</ele>
        <time>2019-08-23T22:14:30.528Z</time>
      </trkpt>
      <trkpt lat="38.6215" lon="-9.12116">
        <ele>32.62914276123</ele>
        <time>2019-08-23T22:14:38.206Z</time>
      </trkpt>
      <trkpt lat="38.62146" lon="-9.12108">
        <ele>32.91709136963</ele>
        <time>2019-08-23T22:14:45.886Z</time>
      </trkpt>
      <trkpt lat="38.62146" lon="-9.12096">
        <ele>33.06106948853</ele>
        <time>2019-08-23T22:14:53.568Z</time>
      </trkpt>
      <trkpt lat="38.62058" lon="-9.11885">
        <ele>26.7</ele>
        <time>2019-08-23T22:15:01.251Z</time>
      </trkpt>
      <trkpt lat="38.62013" lon="-9.11787">
        <ele>25.7</ele>
        <time>2019-08-23T22:15:08.936Z</time>
      </trkpt>
      <trkpt lat="38.6193" lon="-9.116">
        <ele>19.7</ele>
        <time>2019-08-23T22:15:16.622Z</time>
      </trkpt>
      <trkpt lat="38.6188" lon="-9.11541">
        <ele>18.84184646606</ele>
        <time>2019-08-23T22:47:37.686Z</time>
      </trkpt>
      <trkpt lat="38.6181" lon="-9.11584">
        <ele>17.17434120178</ele>
        <time>2019-08-23T22:47:47.183Z</time>
      </trkpt>
      <trkpt lat="38.6181" lon="-9.11601">
        <ele>17.37830734253</ele>
        <time>2019-08-23T22:47:56.683Z</time>
      </trkpt>
      <trkpt lat="38.61801" lon="-9.11609">
        <ele>17.15034484863</ele>
        <time>2019-08-23T22:48:06.186Z</time>
      </trkpt>
      <trkpt lat="38.61759" lon="-9.11681">
        <ele>17.12050247192</ele>
        <time>2019-08-23T22:48:15.704Z</time>
      </trkpt>
      <trkpt lat="38.61739" lon="-9.11713">
        <ele>16.92175483704</ele>
        <time>2019-08-23T22:48:25.228Z</time>
      </trkpt>
      <trkpt lat="38.61732" lon="-9.11739">
        <ele>17.64883804321</ele>
        <time>2019-08-23T22:48:34.757Z</time>
      </trkpt>
      <trkpt lat="38.61732" lon="-9.11776">
        <ele>19.86846923828</ele>
        <time>2019-08-23T22:48:44.292Z</time>
      </trkpt>
      <trkpt lat="38.61735" lon="-9.11802">
        <ele>21.37916564941</ele>
        <time>2019-08-23T22:48:53.832Z</time>
      </trkpt>
      <trkpt lat="38.61725" lon="-9.11791">
        <ele>20.01139259338</ele>
        <time>2019-08-23T22:49:03.374Z</time>
      </trkpt>
      <trkpt lat="38.61653" lon="-9.11739">
        <ele>12.31107330322</ele>
        <time>2019-08-23T22:49:12.934Z</time>
      </trkpt>
      <trkpt lat="38.61631" lon="-9.11731">
        <ele>11.85476589203</ele>
        <time>2019-08-23T22:49:22.499Z</time>
      </trkpt>
      <trkpt lat="38.61615" lon="-9.1174">
        <ele>11.61480522156</ele>
        <time>2019-08-23T22:49:32.068Z</time>
      </trkpt>
      <trkpt lat="38.61606" lon="-9.11749">
        <ele>11.29085922241</ele>
        <time>2019-08-23T22:49:41.639Z</time>
      </trkpt>
      <trkpt lat="38.61571" lon="-9.11794">
        <ele>12.52091789246</ele>
        <time>2019-08-23T22:49:51.221Z</time>
      </trkpt>
      <trkpt lat="38.61558" lon="-9.11798">
        <ele>13.73271560669</ele>
        <time>2019-08-23T22:50:00.806Z</time>
      </trkpt>
      <trkpt lat="38.61543" lon="-9.118">
        <ele>15.25646114349</ele>
        <time>2019-08-23T22:50:10.394Z</time>
      </trkpt>
      <trkpt lat="38.61469" lon="-9.11779">
        <ele>21.89994239807</ele>
        <time>2019-08-23T22:50:19.998Z</time>
      </trkpt>
      <trkpt lat="38.61444" lon="-9.11783">
        <ele>23.25571632385</ele>
        <time>2019-08-23T22:50:29.607Z</time>
      </trkpt>
      <trkpt lat="38.61407" lon="-9.11795">
        <ele>24.14861488342</ele>
        <time>2019-08-23T22:50:39.224Z</time>
      </trkpt>
      <trkpt lat="38.61369" lon="-9.11816">
        <ele>24.50855636597</ele>
        <time>2019-08-23T22:50:48.850Z</time>
      </trkpt>
      <trkpt lat="38.61373" lon="-9.11836">
        <ele>23.40473937988</ele>
        <time>2019-08-23T22:50:58.480Z</time>
      </trkpt>
      <trkpt lat="38.61394" lon="-9.11901">
        <ele>18.56810569763</ele>
        <time>2019-08-23T22:51:08.121Z</time>
      </trkpt>
      <trkpt lat="38.61393" lon="-9.11918">
        <ele>17.90796089172</ele>
        <time>2019-08-23T22:51:17.765Z</time>
      </trkpt>
      <trkpt lat="38.61333" lon="-9.12057">
        <ele>20.21522331238</ele>
        <time>2019-08-23T22:51:27.436Z</time>
      </trkpt>
      <trkpt lat="38.61329" lon="-9.12073">
        <ele>20.93510246277</ele>
        <time>2019-08-23T22:51:37.110Z</time>
      </trkpt>
      <trkpt lat="38.61329" lon="-9.12116">
        <ele>23.34062957764</ele>
        <time>2019-08-23T22:51:46.791Z</time>
      </trkpt>
      <trkpt lat="38.61308" lon="-9.12187">
        <ele>29.5747833252</ele>
        <time>2019-08-23T22:51:56.485Z</time>
      </trkpt>
      <trkpt lat="38.61302" lon="-9.12226">
        <ele>31.74998283386</ele>
        <time>2019-08-23T22:52:06.185Z</time>
      </trkpt>
      <trkpt lat="38.61311" lon="-9.12284">
        <ele>34.31755447388</ele>
        <time>2019-08-23T22:52:15.895Z</time>
      </trkpt>
      <trkpt lat="38.61313" lon="-9.12325">
        <ele>36.34648513794</ele>
        <time>2019-08-23T22:52:25.612Z</time>
      </trkpt>
      <trkpt lat="38.6131" lon="-9.12475">
        <ele>41.12704467773</ele>
        <time>2019-08-23T22:52:35.354Z</time>
      </trkpt>
      <trkpt lat="38.61273" lon="-9.12475">
        <ele>41.57096862793</ele>
        <time>2019-08-23T22:52:45.104Z</time>
      </trkpt>
      <trkpt lat="38.6124" lon="-9.12538">
        <ele>41.15899658203</ele>
        <time>2019-08-23T22:52:54.867Z</time>
      </trkpt>
      <trkpt lat="38.61217" lon="-9.12618">
        <ele>39.48886489868</ele>
        <time>2019-08-23T22:53:04.644Z</time>
      </trkpt>
      <trkpt lat="38.61206" lon="-9.12646">
        <ele>38.2170753479</ele>
        <time>2019-08-23T22:53:14.426Z</time>
      </trkpt>
      <trkpt lat="38.61179" lon="-9.12702">
        <ele>35.92556381226</ele>
        <time>2019-08-23T22:53:24.219Z</time>
      </trkpt>
      <trkpt lat="38.61168" lon="-9.12727">
        <ele>35.79358673096</ele>
        <time>2019-08-23T22:53:34.017Z</time>
      </trkpt>
      <trkpt lat="38.61133" lon="-9.12819">
        <ele>35.87662124634</ele>
        <time>2019-08-23T22:53:43.832Z</time>
      </trkpt>
      <trkpt lat="38.61099" lon="-9.12926">
        <ele>36</ele>
        <time>2019-08-23T22:53:53.666Z</time>
      </trkpt>
      <trkpt lat="38.61053" lon="-9.13053">
        <ele>38.10387039185</ele>
        <time>2019-08-23T22:54:03.524Z</time>
      </trkpt>
      <trkpt lat="38.61083" lon="-9.131">
        <ele>37.77938842773</ele>
        <time>2019-08-23T22:54:13.392Z</time>
      </trkpt>
      <trkpt lat="38.61064" lon="-9.13121">
        <ele>38.69046401978</ele>
        <time>2019-08-23T22:54:23.265Z</time>
      </trkpt>
      <trkpt lat="38.60993" lon="-9.13227">
        <ele>39.81582641602</ele>
        <time>2019-08-23T22:54:33.162Z</time>
      </trkpt>
      <trkpt lat="38.60948" lon="-9.13147">
        <ele>41.03065109253</ele>
        <time>2019-08-23T22:54:43.075Z</time>
      </trkpt>
      <trkpt lat="38.60941" lon="-9.13156">
        <ele>41.16262817383</ele>
        <time>2019-08-23T22:54:52.990Z</time>
      </trkpt>
      <trkpt lat="38.60857" lon="-9.13231">
        <ele>40.61606216431</ele>
        <time>2019-08-23T22:55:02.927Z</time>
      </trkpt>
      <trkpt lat="38.60789" lon="-9.13299">
        <ele>42.26097106934</ele>
        <time>2019-08-23T22:55:12.883Z</time>
      </trkpt>
      <trkpt lat="38.60671" lon="-9.13435">
        <ele>42.10626220703</ele>
        <time>2019-08-23T22:55:22.872Z</time>
      </trkpt>
      <trkpt lat="38.60569" lon="-9.13589">
        <ele>42.04500579834</ele>
        <time>2019-08-23T22:55:32.895Z</time>
      </trkpt>
      <trkpt lat="38.60538" lon="-9.13639">
        <ele>42.53031158447</ele>
        <time>2019-08-23T22:55:42.929Z</time>
      </trkpt>
      <trkpt lat="38.60528" lon="-9.13656">
        <ele>42.77027130127</ele>
        <time>2019-08-23T22:55:52.966Z</time>
      </trkpt>
      <trkpt lat="38.60497" lon="-9.13705">
        <ele>43.37163162231</ele>
        <time>2019-08-23T22:56:03.014Z</time>
      </trkpt>
      <trkpt lat="38.60487" lon="-9.13714">
        <ele>43.40762329102</ele>
        <time>2019-08-23T22:56:13.065Z</time>
      </trkpt>
      <trkpt lat="38.60458" lon="-9.1373">
        <ele>43.87554550171</ele>
        <time>2019-08-23T22:56:23.122Z</time>
      </trkpt>
      <trkpt lat="38.60409" lon="-9.13754">
        <ele>43.83670425415</ele>
        <time>2019-08-23T22:56:33.190Z</time>
      </trkpt>
      <trkpt lat="38.60301" lon="-9.13812">
        <ele>43</ele>
        <time>2019-08-23T22:56:43.283Z</time>
      </trkpt>
      <trkpt lat="38.60279" lon="-9.13814">
        <ele>43.8</ele>
        <time>2019-08-23T22:56:53.390Z</time>
      </trkpt>
      <trkpt lat="38.60234" lon="-9.13831">
        <ele>44.2</ele>
        <time>2019-08-23T22:57:03.509Z</time>
      </trkpt>
      <trkpt lat="38.59961" lon="-9.13977">
        <ele>45.7</ele>
        <time>2019-08-23T22:57:13.631Z</time>
      </trkpt>
      <trkpt lat="38.59996" lon="-9.14112">
        <ele>42.5</ele>
        <time>2019-08-23T22:57:23.812Z</time>
      </trkpt>
      <trkpt lat="38.59888" lon="-9.14206">
        <ele>43.8</ele>
        <time>2019-08-23T22:57:33.995Z</time>
      </trkpt>
      <trkpt lat="38.59781" lon="-9.14384">
        <ele>45.8</ele>
        <time>2019-08-23T22:57:44.238Z</time>
      </trkpt>
      <trkpt lat="38.59762" lon="-9.14475">
        <ele>46</ele>
        <time>2019-08-23T22:57:54.497Z</time>
      </trkpt>
      <trkpt lat="38.59794" lon="-9.14712">
        <ele>41.4</ele>
        <time>2019-08-23T22:58:04.760Z</time>
      </trkpt>
    </trkseg>
  </trk>
</gpx>